Time,TemperatureF,DewpointF,PressureIn,WindDirection,WindDirectionDegrees,WindSpeedMPH,WindSpeedGustMPH,Humidity,HourlyPrecipIn,Conditions,Clouds,dailyrainin,SoftwareType,DateUTC
2013-05-28 00:00:00,63.8,61.1,29.84,SE,135,0.0,2.0,91,0.00,,,0.00,VWS V14.01,2013-05-28 05:00:00,
2013-05-28 00:30:00,64.1,61.4,29.83,SE,135,0.0,5.0,91,0.00,,CLR,0.85,VWS V14.01,2013-05-28 05:30:00,
2013-05-28 00:54:00,63.8,61.1,29.84,SE,135,0.0,2.0,91,0.00,,,0.00,VWS V14.01,2013-05-28 05:54:00,
2013-05-28 00:59:00,65.4,62.7,29.82,South,180,0.0,1.0,91,0.00,,,0.00,VWS V14.01,2013-05-28 05:59:00,
2013-05-28 01:00:00,65.4,62.7,29.82,ESE,121,0.0,3.0,91,0.00,,,0.00,VWS V14.01,2013-05-28 06:00:00,
2013-05-28 01:04:00,65.2,62.5,29.82,South,176,0.0,0.0,91,0.00,,CLR,0.00,VWS V14.01,2013-05-28 06:04:00,
2013-05-28 01:09:00,65.2,62.5,29.82,SSW,196,0.0,1.0,91,0.00,,CLR,0.00,VWS V14.01,2013-05-28 06:09:00,
2013-05-28 01:10:00,65.2,62.5,29.82,SSW,207,0.0,5.0,91,0.00,,CLR,0.00,VWS V14.01,2013-05-28 06:10:00,
2013-05-28 01:14:00,65.2,62.5,29.82,SSW,205,0.0,6.0,91,0.00,,CLR,0.00,VWS V14.01,2013-05-28 06:14:00,
2013-05-28 01:15:00,65.2,62.5,29.81,SSW,205,0.0,6.0,91,0.00,,CLR,0.00,VWS V14.01,2013-05-28 06:15:00,
2013-05-28 01:19:00,65.2,62.5,29.81,South,183,0.0,6.0,91,0.00,,CLR,0.00,VWS V14.01,2013-05-28 06:19:00,
2013-05-28 01:20:00,65.4,62.7,29.81,SSE,150,0.0,6.0,91,0.00,,CLR,0.00,VWS V14.01,2013-05-28 06:20:00,
2013-05-28 01:24:00,65.2,62.5,29.81,SSW,198,0.0,6.0,91,0.00,,CLR,0.00,VWS V14.01,2013-05-28 06:24:00,
2013-05-28 01:25:00,65.2,62.5,29.81,SSW,198,0.0,6.0,91,0.00,,CLR,0.00,VWS V14.01,2013-05-28 06:25:00,
2013-05-28 01:29:00,65.4,62.7,29.81,South,184,0.0,6.0,91,0.00,,CLR,0.00,VWS V14.01,2013-05-28 06:29:00,
2013-05-28 01:30:00,65.4,62.7,29.80,South,184,0.0,6.0,91,0.00,,CLR,0.00,VWS V14.01,2013-05-28 06:30:00,
2013-05-28 01:35:00,65.5,62.8,29.80,South,175,0.0,7.0,91,0.00,,CLR,0.00,VWS V14.01,2013-05-28 06:35:00,
2013-05-28 01:36:00,65.5,62.8,29.80,SSE,160,0.0,7.0,91,0.00,,CLR,0.00,VWS V14.01,2013-05-28 06:36:00,
2013-05-28 01:40:00,65.5,62.8,29.80,South,177,2.0,7.0,91,0.00,,CLR,0.00,VWS V14.01,2013-05-28 06:40:00,
2013-05-28 01:41:00,65.7,63.0,29.80,SSW,197,0.0,7.0,91,0.00,,CLR,0.00,VWS V14.01,2013-05-28 06:41:00,
2013-05-28 01:45:00,65.7,63.0,29.79,SE,140,0.0,7.0,91,0.00,,CLR,0.00,VWS V14.01,2013-05-28 06:45:00,
2013-05-28 01:46:00,65.7,63.0,29.79,South,178,0.0,7.0,91,0.00,,CLR,0.00,VWS V14.01,2013-05-28 06:46:00,
2013-05-28 01:47:00,65.7,63.0,29.79,SSE,167,0.0,7.0,91,0.00,,CLR,0.00,VWS V14.01,2013-05-28 06:47:00,
2013-05-28 01:50:00,65.9,62.9,29.79,South,180,0.0,7.0,90,0.00,,CLR,0.00,VWS V14.01,2013-05-28 06:50:00,
2013-05-28 01:51:00,65.9,62.9,29.79,South,178,0.0,7.0,90,0.00,,CLR,0.00,VWS V14.01,2013-05-28 06:51:00,
2013-05-28 01:52:00,65.9,62.9,29.79,South,173,0.0,7.0,90,0.00,,CLR,0.00,VWS V14.01,2013-05-28 06:52:00,
2013-05-28 01:55:00,66.0,63.0,29.79,SSW,209,6.0,7.0,90,0.00,,CLR,0.00,VWS V14.01,2013-05-28 06:55:00,
2013-05-28 01:56:00,66.0,63.0,29.79,SSE,166,0.0,7.0,90,0.00,,CLR,0.00,VWS V14.01,2013-05-28 06:56:00,
2013-05-28 01:57:00,66.0,63.0,29.79,SSW,198,0.0,7.0,90,0.00,,CLR,0.00,VWS V14.01,2013-05-28 06:57:00,
2013-05-28 02:00:00,66.0,63.0,29.79,South,181,0.0,7.0,90,0.00,,CLR,0.00,VWS V14.01,2013-05-28 07:00:00,
2013-05-28 02:01:00,66.0,63.0,29.79,South,181,0.0,0.0,90,0.00,,CLR,0.00,VWS V14.01,2013-05-28 07:01:00,
2013-05-28 02:02:00,66.2,63.2,29.79,South,181,0.0,0.0,90,0.00,,CLR,0.00,VWS V14.01,2013-05-28 07:02:00,
2013-05-28 02:05:00,66.2,62.9,29.79,South,180,0.0,2.0,89,0.00,,CLR,0.00,VWS V14.01,2013-05-28 07:05:00,
2013-05-28 02:06:00,66.2,62.9,29.79,South,180,0.0,2.0,89,0.00,,CLR,0.00,VWS V14.01,2013-05-28 07:06:00,
2013-05-28 02:07:00,66.2,62.9,29.79,South,186,6.0,6.0,89,0.00,,CLR,0.00,VWS V14.01,2013-05-28 07:07:00,
2013-05-28 02:10:00,66.3,63.0,29.79,SSW,198,0.0,6.0,89,0.00,,CLR,0.00,VWS V14.01,2013-05-28 07:10:00,
2013-05-28 02:11:00,66.3,63.0,29.79,SSW,198,0.0,6.0,89,0.00,,CLR,0.00,VWS V14.01,2013-05-28 07:11:00,
2013-05-28 02:12:00,66.3,63.0,29.79,South,171,0.0,6.0,89,0.00,,CLR,0.00,VWS V14.01,2013-05-28 07:12:00,
2013-05-28 02:16:00,66.5,62.8,29.79,SSW,197,1.0,6.0,88,0.00,,CLR,0.00,VWS V14.01,2013-05-28 07:16:00,
2013-05-28 02:17:00,66.5,62.8,29.79,South,188,0.0,6.0,88,0.00,,CLR,0.00,VWS V14.01,2013-05-28 07:17:00,
2013-05-28 02:21:00,66.5,62.8,29.79,South,185,0.0,6.0,88,0.00,,CLR,0.00,VWS V14.01,2013-05-28 07:21:00,
2013-05-28 02:22:00,66.5,62.8,29.79,SSW,202,0.0,6.0,88,0.00,,CLR,0.00,VWS V14.01,2013-05-28 07:22:00,
2013-05-28 02:26:00,66.7,63.0,29.79,SSE,160,0.0,6.0,88,0.00,,CLR,0.00,VWS V14.01,2013-05-28 07:26:00,
2013-05-28 02:27:00,66.7,62.7,29.79,SE,124,0.0,6.0,87,0.00,,CLR,0.00,VWS V14.01,2013-05-28 07:27:00,
2013-05-28 02:28:00,66.7,62.7,29.79,South,190,0.0,6.0,87,0.00,,CLR,0.00,VWS V14.01,2013-05-28 07:28:00,
2013-05-28 02:30:00,66.5,62.5,29.78,SSW,194,0.0,6.0,87,0.00,,,0.00,VWS V14.01,2013-05-28 07:30:00,
2013-05-28 02:31:00,66.5,62.5,29.78,SSW,194,0.0,0.0,87,0.00,,CLR,0.00,VWS V14.01,2013-05-28 07:31:00,
2013-05-28 02:32:00,66.5,62.5,29.78,South,187,0.0,1.0,87,0.00,,CLR,0.00,VWS V14.01,2013-05-28 07:32:00,
2013-05-28 02:33:00,66.5,62.5,29.78,SSE,159,0.0,1.0,87,0.00,,CLR,0.00,VWS V14.01,2013-05-28 07:33:00,
2013-05-28 02:36:00,66.5,62.5,29.78,SSE,155,0.0,1.0,87,0.00,,CLR,0.00,VWS V14.01,2013-05-28 07:36:00,
2013-05-28 02:37:00,66.5,62.5,29.78,SSE,155,0.0,1.0,87,0.00,,CLR,0.00,VWS V14.01,2013-05-28 07:37:00,
2013-05-28 02:39:00,66.5,62.5,29.78,South,187,0.0,1.0,87,0.00,,CLR,0.00,VWS V14.01,2013-05-28 07:39:00,
2013-05-28 02:41:00,66.5,62.5,29.78,SSW,198,0.0,1.0,87,0.00,,CLR,0.00,VWS V14.01,2013-05-28 07:41:00,
2013-05-28 02:42:00,66.5,62.5,29.78,SSW,198,0.0,1.0,87,0.00,,CLR,0.00,VWS V14.01,2013-05-28 07:42:00,
2013-05-28 02:44:00,66.5,62.5,29.78,SSW,192,0.0,1.0,87,0.00,,CLR,0.00,VWS V14.01,2013-05-28 07:44:00,
2013-05-28 02:47:00,66.5,62.5,29.78,SSE,162,7.0,7.0,87,0.00,,CLR,0.00,VWS V14.01,2013-05-28 07:47:00,
2013-05-28 02:48:00,66.5,62.5,29.78,South,174,0.0,7.0,87,0.00,,CLR,0.00,VWS V14.01,2013-05-28 07:48:00,
2013-05-28 02:49:00,66.5,62.5,29.78,SSE,148,0.0,7.0,87,0.00,,CLR,0.00,VWS V14.01,2013-05-28 07:49:00,
2013-05-28 02:52:00,66.5,62.2,29.78,SSE,162,0.0,10.0,86,0.00,,CLR,0.00,VWS V14.01,2013-05-28 07:52:00,
2013-05-28 02:53:00,66.5,62.2,29.78,SSW,205,4.0,10.0,86,0.00,,CLR,0.00,VWS V14.01,2013-05-28 07:53:00,
2013-05-28 02:54:00,66.7,62.4,29.78,South,185,2.0,10.0,86,0.00,,CLR,0.00,VWS V14.01,2013-05-28 07:54:00,
2013-05-28 02:57:00,66.7,62.4,29.78,South,175,0.0,10.0,86,0.00,,CLR,0.00,VWS V14.01,2013-05-28 07:57:00,
2013-05-28 02:58:00,66.7,62.4,29.78,South,169,0.0,10.0,86,0.00,,CLR,0.00,VWS V14.01,2013-05-28 07:58:00,
2013-05-28 03:00:00,66.7,62.4,29.76,SSW,207,2.0,10.0,86,0.00,,CLR,0.00,VWS V14.01,2013-05-28 08:00:00,
2013-05-28 03:02:00,66.7,62.0,29.76,SSW,200,0.0,4.0,85,0.00,,CLR,0.00,VWS V14.01,2013-05-28 08:02:00,
2013-05-28 03:03:00,66.7,62.0,29.76,SSW,200,0.0,4.0,85,0.00,,CLR,0.00,VWS V14.01,2013-05-28 08:03:00,
2013-05-28 03:04:00,66.7,62.0,29.76,South,179,0.0,4.0,85,0.00,,CLR,0.00,VWS V14.01,2013-05-28 08:04:00,
2013-05-28 03:06:00,66.7,62.0,29.76,SSE,162,0.0,4.0,85,0.00,,CLR,0.00,VWS V14.01,2013-05-28 08:06:00,
2013-05-28 03:07:00,66.7,62.0,29.76,SSW,198,0.0,4.0,85,0.00,,CLR,0.00,VWS V14.01,2013-05-28 08:07:00,
2013-05-28 03:08:00,66.7,62.0,29.76,South,186,0.0,4.0,85,0.00,,CLR,0.00,VWS V14.01,2013-05-28 08:08:00,
2013-05-28 03:09:00,66.7,62.0,29.76,South,170,1.0,9.0,85,0.00,,CLR,0.00,VWS V14.01,2013-05-28 08:09:00,
2013-05-28 03:11:00,66.8,61.8,29.76,South,182,0.0,9.0,84,0.00,,CLR,0.00,VWS V14.01,2013-05-28 08:11:00,
2013-05-28 03:12:00,66.8,61.8,29.76,South,182,0.0,9.0,84,0.00,,CLR,0.00,VWS V14.01,2013-05-28 08:12:00,
2013-05-28 03:13:00,66.8,61.8,29.76,South,183,0.0,9.0,84,0.00,,CLR,0.00,VWS V14.01,2013-05-28 08:13:00,
2013-05-28 03:14:00,66.8,61.8,29.76,South,172,0.0,9.0,84,0.00,,CLR,0.00,VWS V14.01,2013-05-28 08:14:00,
2013-05-28 03:16:00,66.8,61.8,29.77,South,184,0.0,9.0,84,0.00,,CLR,0.00,VWS V14.01,2013-05-28 08:16:00,
2013-05-28 03:18:00,66.8,61.8,29.77,South,186,0.0,9.0,84,0.00,,CLR,0.00,VWS V14.01,2013-05-28 08:18:00,
2013-05-28 03:19:00,66.8,61.8,29.77,South,184,0.0,9.0,84,0.00,,CLR,0.00,VWS V14.01,2013-05-28 08:19:00,
2013-05-28 03:22:00,66.8,61.8,29.77,SSW,209,0.0,9.0,84,0.00,,CLR,0.00,VWS V14.01,2013-05-28 08:22:00,
2013-05-28 03:23:00,66.8,61.8,29.77,South,189,0.0,9.0,84,0.00,,CLR,0.00,VWS V14.01,2013-05-28 08:23:00,
2013-05-28 03:24:00,67.0,61.7,29.77,SSW,195,0.0,9.0,83,0.00,,CLR,0.00,VWS V14.01,2013-05-28 08:24:00,
2013-05-28 03:27:00,67.0,61.7,29.77,South,171,0.0,9.0,83,0.00,,CLR,0.00,VWS V14.01,2013-05-28 08:27:00,
2013-05-28 03:28:00,67.0,61.7,29.77,South,172,0.0,9.0,83,0.00,,CLR,0.00,VWS V14.01,2013-05-28 08:28:00,
2013-05-28 03:29:00,67.0,61.7,29.77,South,173,0.0,9.0,83,0.00,,CLR,0.00,VWS V14.01,2013-05-28 08:29:00,
2013-05-28 03:30:00,67.0,61.7,29.77,SE,144,0.0,9.0,83,0.00,,,0.00,VWS V14.01,2013-05-28 08:30:00,
2013-05-28 03:32:00,67.0,61.7,29.77,SSE,166,0.0,0.0,83,0.00,,CLR,0.00,VWS V14.01,2013-05-28 08:32:00,
2013-05-28 03:33:00,67.0,61.7,29.77,SSE,166,0.0,0.0,83,0.00,,CLR,0.00,VWS V14.01,2013-05-28 08:33:00,
2013-05-28 03:34:00,67.0,61.7,29.77,South,171,0.0,1.0,83,0.00,,CLR,0.00,VWS V14.01,2013-05-28 08:34:00,
2013-05-28 03:37:00,67.0,61.3,29.77,South,187,0.0,5.0,82,0.00,,CLR,0.00,VWS V14.01,2013-05-28 08:37:00,
2013-05-28 03:38:00,67.0,61.3,29.77,South,189,0.0,5.0,82,0.00,,CLR,0.00,VWS V14.01,2013-05-28 08:38:00,
2013-05-28 03:39:00,67.0,61.3,29.77,SSW,192,0.0,5.0,82,0.00,,CLR,0.00,VWS V14.01,2013-05-28 08:39:00,
2013-05-28 03:40:00,67.2,61.5,29.77,SSW,198,0.0,5.0,82,0.00,,CLR,0.00,VWS V14.01,2013-05-28 08:40:00,
2013-05-28 03:42:00,67.2,61.5,29.77,SSW,197,0.0,5.0,82,0.00,,CLR,0.00,VWS V14.01,2013-05-28 08:42:00,
2013-05-28 03:43:00,67.2,61.5,29.77,South,173,0.0,5.0,82,0.00,,CLR,0.00,VWS V14.01,2013-05-28 08:43:00,
2013-05-28 03:44:00,67.2,61.5,29.77,SW,235,0.0,5.0,82,0.00,,CLR,0.00,VWS V14.01,2013-05-28 08:44:00,
2013-05-28 03:45:00,67.2,61.5,29.76,SW,225,0.0,5.0,82,0.00,,CLR,0.00,VWS V14.01,2013-05-28 08:45:00,
2013-05-28 03:47:00,67.0,61.3,29.76,SSW,194,0.0,5.0,82,0.00,,CLR,0.00,VWS V14.01,2013-05-28 08:47:00,
2013-05-28 03:48:00,67.0,61.3,29.76,SSE,161,0.0,5.0,82,0.00,,CLR,0.00,VWS V14.01,2013-05-28 08:48:00,
2013-05-28 03:49:00,67.0,61.3,29.76,SSW,198,0.0,5.0,82,0.00,,CLR,0.00,VWS V14.01,2013-05-28 08:49:00,
2013-05-28 03:50:00,67.0,61.3,29.76,SSW,198,0.0,5.0,82,0.00,,CLR,0.00,VWS V14.01,2013-05-28 08:50:00,
2013-05-28 03:52:00,67.0,61.3,29.76,South,183,0.0,5.0,82,0.00,,CLR,0.00,VWS V14.01,2013-05-28 08:52:00,
2013-05-28 03:53:00,67.0,61.3,29.76,SSW,201,6.0,9.0,82,0.00,,CLR,0.00,VWS V14.01,2013-05-28 08:53:00,
2013-05-28 03:54:00,67.0,61.3,29.76,SSW,196,0.0,9.0,82,0.00,,CLR,0.00,VWS V14.01,2013-05-28 08:54:00,
2013-05-28 03:55:00,67.0,61.3,29.76,SSW,211,3.0,9.0,82,0.00,,CLR,0.00,VWS V14.01,2013-05-28 08:55:00,
2013-05-28 03:58:00,67.0,61.3,29.76,SSW,198,4.0,9.0,82,0.00,,CLR,0.00,VWS V14.01,2013-05-28 08:58:00,
2013-05-28 03:59:00,67.0,61.3,29.76,SSW,201,0.0,9.0,82,0.00,,CLR,0.00,VWS V14.01,2013-05-28 08:59:00,
2013-05-28 04:00:00,67.0,61.3,29.77,South,180,0.0,9.0,82,0.00,,CLR,0.00,VWS V14.01,2013-05-28 09:00:00,
2013-05-28 04:03:00,67.0,61.0,29.77,SSW,194,0.0,4.0,81,0.00,,CLR,0.00,VWS V14.01,2013-05-28 09:03:00,
2013-05-28 04:04:00,67.0,61.0,29.77,South,191,0.0,4.0,81,0.00,,CLR,0.00,VWS V14.01,2013-05-28 09:04:00,
2013-05-28 04:05:00,67.0,61.0,29.77,SSW,197,0.0,4.0,81,0.00,,CLR,0.00,VWS V14.01,2013-05-28 09:05:00,
2013-05-28 04:08:00,67.0,61.0,29.77,South,175,0.0,4.0,81,0.00,,CLR,0.00,VWS V14.01,2013-05-28 09:08:00,
2013-05-28 04:09:00,67.0,61.0,29.77,SSW,201,0.0,4.0,81,0.00,,CLR,0.00,VWS V14.01,2013-05-28 09:09:00,
2013-05-28 04:10:00,67.0,61.0,29.77,SSW,207,3.0,6.0,81,0.00,,CLR,0.00,VWS V14.01,2013-05-28 09:10:00,
2013-05-28 04:14:00,67.0,61.0,29.77,SSW,194,5.0,6.0,81,0.00,,CLR,0.00,VWS V14.01,2013-05-28 09:14:00,
2013-05-28 04:15:00,67.2,61.2,29.77,SSW,212,0.0,6.0,81,0.00,,CLR,0.00,VWS V14.01,2013-05-28 09:15:00,
2013-05-28 04:19:00,67.2,61.2,29.77,South,173,0.0,6.0,81,0.00,,CLR,0.00,VWS V14.01,2013-05-28 09:19:00,
2013-05-28 04:20:00,67.2,61.2,29.77,South,185,0.0,6.0,81,0.00,,CLR,0.00,VWS V14.01,2013-05-28 09:20:00,
2013-05-28 04:24:00,67.2,61.2,29.77,South,187,0.0,6.0,81,0.00,,CLR,0.00,VWS V14.01,2013-05-28 09:24:00,
2013-05-28 04:25:00,67.2,61.2,29.77,SSE,158,0.0,6.0,81,0.00,,CLR,0.00,VWS V14.01,2013-05-28 09:25:00,
2013-05-28 04:29:00,67.2,61.2,29.77,South,190,0.0,6.0,81,0.00,,CLR,0.00,VWS V14.01,2013-05-28 09:29:00,
2013-05-28 04:30:00,67.2,61.2,29.78,South,188,0.0,6.0,81,0.00,,CLR,0.00,VWS V14.01,2013-05-28 09:30:00,
2013-05-28 04:31:00,67.3,61.3,29.78,SE,134,1.0,2.0,81,0.00,,CLR,0.00,VWS V14.01,2013-05-28 09:31:00,
2013-05-28 04:34:00,67.3,61.3,29.78,South,180,0.0,4.0,81,0.00,,CLR,0.00,VWS V14.01,2013-05-28 09:34:00,
2013-05-28 04:35:00,67.3,61.3,29.78,South,182,0.0,4.0,81,0.00,,CLR,0.00,VWS V14.01,2013-05-28 09:35:00,
2013-05-28 04:36:00,67.3,61.3,29.78,SSW,194,0.0,4.0,81,0.00,,CLR,0.00,VWS V14.01,2013-05-28 09:36:00,
2013-05-28 04:39:00,67.3,61.3,29.78,SSW,192,0.0,4.0,81,0.00,,CLR,0.00,VWS V14.01,2013-05-28 09:39:00,
2013-05-28 04:40:00,67.3,61.3,29.78,SSW,211,6.0,6.0,81,0.00,,CLR,0.00,VWS V14.01,2013-05-28 09:40:00,
2013-05-28 04:41:00,67.3,61.3,29.78,South,169,0.0,7.0,81,0.00,,CLR,0.00,VWS V14.01,2013-05-28 09:41:00,
2013-05-28 04:44:00,67.5,61.5,29.78,South,176,0.0,7.0,81,0.00,,CLR,0.00,VWS V14.01,2013-05-28 09:44:00,
2013-05-28 04:45:00,67.5,61.5,29.79,South,189,0.0,7.0,81,0.00,,CLR,0.00,VWS V14.01,2013-05-28 09:45:00,
2013-05-28 04:46:00,67.5,61.5,29.79,SSE,165,0.0,7.0,81,0.00,,CLR,0.00,VWS V14.01,2013-05-28 09:46:00,
2013-05-28 04:50:00,67.5,61.5,29.79,SSW,197,0.0,7.0,81,0.00,,CLR,0.00,VWS V14.01,2013-05-28 09:50:00,
2013-05-28 04:51:00,67.5,61.5,29.79,SSW,196,0.0,7.0,81,0.00,,CLR,0.00,VWS V14.01,2013-05-28 09:51:00,
2013-05-28 04:55:00,67.7,61.3,29.79,SSW,200,0.0,7.0,80,0.00,,CLR,0.00,VWS V14.01,2013-05-28 09:55:00,
2013-05-28 04:56:00,67.7,61.3,29.79,SSW,194,0.0,7.0,80,0.00,,CLR,0.00,VWS V14.01,2013-05-28 09:56:00,
2013-05-28 04:57:00,67.7,61.3,29.79,SSW,209,0.0,7.0,80,0.00,,CLR,0.00,VWS V14.01,2013-05-28 09:57:00,
2013-05-28 05:00:00,67.7,61.3,29.81,South,178,0.0,7.0,80,0.00,,CLR,0.00,VWS V14.01,2013-05-28 10:00:00,
2013-05-28 05:01:00,67.7,61.3,29.81,South,181,0.0,7.0,80,0.00,,CLR,0.00,VWS V14.01,2013-05-28 10:01:00,
2013-05-28 05:02:00,67.7,61.3,29.81,South,181,0.0,0.0,80,0.00,,CLR,0.00,VWS V14.01,2013-05-28 10:02:00,
2013-05-28 05:05:00,67.7,61.3,29.81,South,182,0.0,0.0,80,0.00,,CLR,0.00,VWS V14.01,2013-05-28 10:05:00,
2013-05-28 05:06:00,67.7,61.3,29.81,South,182,0.0,0.0,80,0.00,,CLR,0.00,VWS V14.01,2013-05-28 10:06:00,
2013-05-28 05:08:00,67.7,61.7,29.81,South,186,0.0,1.0,81,0.00,,CLR,0.00,VWS V14.01,2013-05-28 10:08:00,
2013-05-28 05:10:00,67.7,61.3,29.81,South,187,3.0,3.0,80,0.00,,CLR,0.00,VWS V14.01,2013-05-28 10:10:00,
2013-05-28 05:11:00,67.7,61.3,29.81,SSW,199,0.0,3.0,80,0.00,,CLR,0.00,VWS V14.01,2013-05-28 10:11:00,
2013-05-28 05:13:00,67.7,61.3,29.81,South,189,0.0,4.0,80,0.00,,CLR,0.00,VWS V14.01,2013-05-28 10:13:00,
2013-05-28 05:15:00,67.7,61.3,29.81,SSW,199,0.0,6.0,80,0.00,,CLR,0.00,VWS V14.01,2013-05-28 10:15:00,
2013-05-28 05:16:00,67.7,61.3,29.81,SW,219,0.0,6.0,80,0.00,,CLR,0.00,VWS V14.01,2013-05-28 10:16:00,
2013-05-28 05:18:00,67.7,61.3,29.81,South,178,0.0,6.0,80,0.00,,CLR,0.00,VWS V14.01,2013-05-28 10:18:00,
2013-05-28 05:21:00,67.7,61.3,29.81,South,184,0.0,6.0,80,0.00,,CLR,0.00,VWS V14.01,2013-05-28 10:21:00,
2013-05-28 05:23:00,67.8,61.4,29.81,SSW,202,0.0,6.0,80,0.00,,CLR,0.00,VWS V14.01,2013-05-28 10:23:00,
2013-05-28 05:26:00,67.8,61.4,29.81,SSW,192,0.0,6.0,80,0.00,,CLR,0.00,VWS V14.01,2013-05-28 10:26:00,
2013-05-28 05:28:00,67.8,61.4,29.81,South,187,0.0,6.0,80,0.00,,CLR,0.00,VWS V14.01,2013-05-28 10:28:00,
2013-05-28 05:30:00,67.8,61.4,29.82,South,186,0.0,6.0,80,0.00,,,0.00,VWS V14.01,2013-05-28 10:30:00,
2013-05-28 05:31:00,67.8,61.4,29.82,South,173,2.0,4.0,80,0.00,,CLR,0.00,VWS V14.01,2013-05-28 10:31:00,
2013-05-28 05:32:00,67.8,61.4,29.82,SSW,207,0.0,4.0,80,0.00,,CLR,0.00,VWS V14.01,2013-05-28 10:32:00,
2013-05-28 05:33:00,67.8,61.4,29.82,SSW,196,0.0,7.0,80,0.00,,CLR,0.00,VWS V14.01,2013-05-28 10:33:00,
2013-05-28 05:36:00,68.0,61.6,29.82,South,170,0.0,7.0,80,0.00,,CLR,0.00,VWS V14.01,2013-05-28 10:36:00,
2013-05-28 05:37:00,68.0,61.6,29.82,South,177,0.0,7.0,80,0.00,,CLR,0.00,VWS V14.01,2013-05-28 10:37:00,
2013-05-28 05:38:00,68.0,61.6,29.82,SSE,163,0.0,7.0,80,0.00,,CLR,0.00,VWS V14.01,2013-05-28 10:38:00,
2013-05-28 05:41:00,68.0,61.6,29.82,South,190,4.0,11.0,80,0.00,,CLR,0.00,VWS V14.01,2013-05-28 10:41:00,
2013-05-28 05:42:00,68.0,61.6,29.82,South,171,2.0,11.0,80,0.00,,CLR,0.00,VWS V14.01,2013-05-28 10:42:00,
2013-05-28 05:43:00,68.0,61.6,29.82,South,176,0.0,11.0,80,0.00,,CLR,0.00,VWS V14.01,2013-05-28 10:43:00,
2013-05-28 05:46:00,68.0,61.6,29.82,South,187,1.0,11.0,80,0.00,,CLR,0.00,VWS V14.01,2013-05-28 10:46:00,
2013-05-28 05:47:00,68.0,61.6,29.82,South,190,1.0,11.0,80,0.00,,CLR,0.00,VWS V14.01,2013-05-28 10:47:00,
2013-05-28 05:48:00,68.0,61.6,29.82,SSW,195,3.0,11.0,80,0.00,,CLR,0.00,VWS V14.01,2013-05-28 10:48:00,
2013-05-28 05:52:00,68.0,61.6,29.82,South,172,0.0,11.0,80,0.00,,CLR,0.00,VWS V14.01,2013-05-28 10:52:00,
2013-05-28 05:53:00,68.0,61.6,29.82,SSW,200,0.0,11.0,80,0.00,,CLR,0.00,VWS V14.01,2013-05-28 10:53:00,
2013-05-28 05:57:00,68.2,61.8,29.82,South,184,0.0,11.0,80,0.00,,CLR,0.00,VWS V14.01,2013-05-28 10:57:00,
2013-05-28 05:58:00,68.2,61.8,29.82,SSW,194,4.0,11.0,80,0.00,,CLR,0.00,VWS V14.01,2013-05-28 10:58:00,
2013-05-28 05:59:00,68.2,61.8,29.82,South,186,1.0,11.0,80,0.00,,CLR,0.00,VWS V14.01,2013-05-28 10:59:00,
2013-05-28 06:00:00,68.2,61.8,29.82,South,186,3.0,11.0,80,0.00,,,0.00,VWS V14.01,2013-05-28 11:00:00,
2013-05-28 06:02:00,68.2,61.8,29.82,South,180,0.0,7.0,80,0.00,,SCT090,0.00,VWS V14.01,2013-05-28 11:02:00,
2013-05-28 06:03:00,68.2,61.8,29.82,South,183,3.0,7.0,80,0.00,,SCT090,0.00,VWS V14.01,2013-05-28 11:03:00,
2013-05-28 06:04:00,68.2,61.8,29.82,South,182,0.0,7.0,80,0.00,,SCT090,0.00,VWS V14.01,2013-05-28 11:04:00,
2013-05-28 06:07:00,68.3,61.9,29.82,SSW,204,0.0,9.0,80,0.00,,SCT090,0.00,VWS V14.01,2013-05-28 11:07:00,
2013-05-28 06:08:00,68.3,61.9,29.82,SSW,194,0.0,9.0,80,0.00,,SCT090,0.00,VWS V14.01,2013-05-28 11:08:00,
2013-05-28 06:09:00,68.3,61.9,29.82,SSE,168,4.0,9.0,80,0.00,,SCT090,0.00,VWS V14.01,2013-05-28 11:09:00,
2013-05-28 06:12:00,68.3,61.9,29.82,SW,214,5.0,9.0,80,0.00,,SCT090,0.00,VWS V14.01,2013-05-28 11:12:00,
2013-05-28 06:13:00,68.3,61.9,29.82,SSW,208,0.0,9.0,80,0.00,,SCT090,0.00,VWS V14.01,2013-05-28 11:13:00,
2013-05-28 06:14:00,68.3,61.9,29.82,South,191,0.0,9.0,80,0.00,,SCT090,0.00,VWS V14.01,2013-05-28 11:14:00,
2013-05-28 06:17:00,68.5,62.1,29.81,SSW,198,3.0,9.0,80,0.00,,SCT090,0.00,VWS V14.01,2013-05-28 11:17:00,
2013-05-28 06:18:00,68.5,62.1,29.81,SSW,193,0.0,9.0,80,0.00,,SCT090,0.00,VWS V14.01,2013-05-28 11:18:00,
2013-05-28 06:19:00,68.5,62.1,29.81,South,187,2.0,9.0,80,0.00,,SCT090,0.00,VWS V14.01,2013-05-28 11:19:00,
2013-05-28 06:22:00,68.5,62.1,29.81,SSW,211,5.0,9.0,80,0.00,,SCT090,0.00,VWS V14.01,2013-05-28 11:22:00,
2013-05-28 06:23:00,68.5,62.1,29.81,SSW,200,1.0,9.0,80,0.00,,SCT090,0.00,VWS V14.01,2013-05-28 11:23:00,
2013-05-28 06:24:00,68.5,62.1,29.81,South,176,1.0,9.0,80,0.00,,SCT090,0.00,VWS V14.01,2013-05-28 11:24:00,
2013-05-28 06:27:00,68.5,62.1,29.81,SSW,198,3.0,9.0,80,0.00,,SCT090,0.00,VWS V14.01,2013-05-28 11:27:00,
2013-05-28 06:28:00,68.5,62.1,29.81,SSW,198,3.0,9.0,80,0.00,,SCT090,0.00,VWS V14.01,2013-05-28 11:28:00,
2013-05-28 06:29:00,68.5,62.1,29.81,South,178,0.0,9.0,80,0.00,,SCT090,0.00,VWS V14.01,2013-05-28 11:29:00,
2013-05-28 06:30:00,68.5,62.1,29.80,South,190,0.0,9.0,80,0.00,,,0.00,VWS V14.01,2013-05-28 11:30:00,
2013-05-28 06:33:00,68.5,62.1,29.80,SSE,153,0.0,5.0,80,0.00,,SCT090,0.00,VWS V14.01,2013-05-28 11:33:00,
2013-05-28 06:34:00,68.5,62.1,29.80,South,186,0.0,9.0,80,0.00,,SCT090,0.00,VWS V14.01,2013-05-28 11:34:00,
2013-05-28 06:38:00,68.5,62.1,29.80,ESE,121,0.0,9.0,80,0.00,,SCT090,0.00,VWS V14.01,2013-05-28 11:38:00,
2013-05-28 06:39:00,68.7,62.3,29.80,SSE,165,0.0,9.0,80,0.00,,SCT090,0.00,VWS V14.01,2013-05-28 11:39:00,
2013-05-28 06:43:00,68.7,62.3,29.80,South,180,0.0,9.0,80,0.00,,SCT090,0.00,VWS V14.01,2013-05-28 11:43:00,
2013-05-28 06:44:00,68.7,62.3,29.80,South,188,0.0,9.0,80,0.00,,SCT090,0.00,VWS V14.01,2013-05-28 11:44:00,
2013-05-28 06:45:00,68.7,62.3,29.80,SSW,210,0.0,9.0,80,0.00,,SCT090,0.00,VWS V14.01,2013-05-28 11:45:00,
2013-05-28 06:48:00,68.7,62.3,29.80,SE,140,2.0,9.0,80,0.00,,SCT090,0.00,VWS V14.01,2013-05-28 11:48:00,
2013-05-28 06:49:00,68.7,62.3,29.80,SSW,197,6.0,9.0,80,0.00,,SCT090,0.00,VWS V14.01,2013-05-28 11:49:00,
2013-05-28 06:50:00,68.7,62.3,29.80,SSW,193,4.0,11.0,80,0.00,,SCT090,0.00,VWS V14.01,2013-05-28 11:50:00,
2013-05-28 06:53:00,68.8,62.4,29.80,SSE,164,1.0,11.0,80,0.00,,SCT090,0.00,VWS V14.01,2013-05-28 11:53:00,
2013-05-28 06:54:00,68.8,62.4,29.80,SSW,209,0.0,11.0,80,0.00,,SCT090,0.00,VWS V14.01,2013-05-28 11:54:00,
2013-05-28 06:55:00,68.8,62.4,29.80,SW,224,5.0,11.0,80,0.00,,SCT090,0.00,VWS V14.01,2013-05-28 11:55:00,
2013-05-28 06:58:00,68.8,62.4,29.80,South,178,2.0,13.0,80,0.00,,SCT090,0.00,VWS V14.01,2013-05-28 11:58:00,
2013-05-28 06:59:00,68.8,62.4,29.80,South,190,3.0,13.0,80,0.00,,SCT090,0.00,VWS V14.01,2013-05-28 11:59:00,
2013-05-28 07:00:00,68.8,62.4,29.80,South,178,0.0,13.0,80,0.00,,SCT090,0.00,VWS V14.01,2013-05-28 12:00:00,
2013-05-28 07:03:00,68.8,62.4,29.80,South,188,4.0,12.0,80,0.00,,CLR,0.00,VWS V14.01,2013-05-28 12:03:00,
2013-05-28 07:04:00,68.8,62.4,29.80,South,188,5.0,12.0,80,0.00,,CLR,0.00,VWS V14.01,2013-05-28 12:04:00,
2013-05-28 07:05:00,69.0,62.6,29.80,South,177,1.0,12.0,80,0.00,,CLR,0.00,VWS V14.01,2013-05-28 12:05:00,
2013-05-28 07:08:00,69.0,63.3,29.80,SSE,150,0.0,12.0,82,0.00,,CLR,0.00,VWS V14.01,2013-05-28 12:08:00,
2013-05-28 07:09:00,69.0,63.3,29.80,SSE,150,0.0,12.0,82,0.00,,CLR,0.00,VWS V14.01,2013-05-28 12:09:00,
2013-05-28 07:10:00,69.0,62.6,29.80,South,190,3.0,14.0,80,0.00,,CLR,0.00,VWS V14.01,2013-05-28 12:10:00,
2013-05-28 07:11:00,69.2,62.8,29.80,SSW,212,5.0,14.0,80,0.00,,CLR,0.00,VWS V14.01,2013-05-28 12:11:00,
2013-05-28 07:13:00,69.2,62.8,29.80,SW,231,4.0,14.0,80,0.00,,CLR,0.00,VWS V14.01,2013-05-28 12:13:00,
2013-05-28 07:14:00,69.2,62.8,29.80,SSW,196,3.0,14.0,80,0.00,,CLR,0.00,VWS V14.01,2013-05-28 12:14:00,
2013-05-28 07:15:00,69.2,62.8,29.81,SSW,198,0.0,14.0,80,0.00,,CLR,0.00,VWS V14.01,2013-05-28 12:15:00,
2013-05-28 07:16:00,69.2,62.8,29.81,SSW,200,0.0,14.0,80,0.00,,CLR,0.00,VWS V14.01,2013-05-28 12:16:00,
2013-05-28 07:19:00,69.3,62.9,29.81,ESE,119,2.0,14.0,80,0.00,,CLR,0.00,VWS V14.01,2013-05-28 12:19:00,
2013-05-28 07:20:00,69.3,62.9,29.81,SSW,202,1.0,14.0,80,0.00,,CLR,0.00,VWS V14.01,2013-05-28 12:20:00,
2013-05-28 07:21:00,69.3,62.5,29.81,South,184,1.0,14.0,79,0.00,,CLR,0.00,VWS V14.01,2013-05-28 12:21:00,
2013-05-28 07:24:00,69.3,62.9,29.81,SSE,155,11.0,14.0,80,0.00,,CLR,0.00,VWS V14.01,2013-05-28 12:24:00,
2013-05-28 07:25:00,69.3,62.9,29.81,South,174,2.0,14.0,80,0.00,,CLR,0.00,VWS V14.01,2013-05-28 12:25:00,
2013-05-28 07:26:00,69.3,62.9,29.81,South,185,0.0,14.0,80,0.00,,CLR,0.00,VWS V14.01,2013-05-28 12:26:00,
2013-05-28 07:29:00,69.3,62.9,29.81,SSW,192,0.0,14.0,80,0.00,,CLR,0.00,VWS V14.01,2013-05-28 12:29:00,
2013-05-28 07:30:00,69.5,63.1,29.81,SSW,209,2.0,14.0,80,0.00,,CLR,0.00,VWS V14.01,2013-05-28 12:30:00,
2013-05-28 07:31:00,69.5,63.1,29.81,SSW,202,0.0,3.0,80,0.00,,CLR,0.00,VWS V14.01,2013-05-28 12:31:00,
2013-05-28 07:34:00,69.5,63.1,29.81,South,169,2.0,7.0,80,0.00,,CLR,0.00,VWS V14.01,2013-05-28 12:34:00,
2013-05-28 07:35:00,69.5,63.1,29.81,SW,218,7.0,10.0,80,0.00,,CLR,0.00,VWS V14.01,2013-05-28 12:35:00,
2013-05-28 07:36:00,69.5,63.1,29.81,SE,135,2.0,10.0,80,0.00,,CLR,0.00,VWS V14.01,2013-05-28 12:36:00,
2013-05-28 07:39:00,69.7,63.3,29.81,SW,219,4.0,14.0,80,0.00,,CLR,0.00,VWS V14.01,2013-05-28 12:39:00,
2013-05-28 07:40:00,69.7,62.9,29.81,South,191,2.0,14.0,79,0.00,,CLR,0.00,VWS V14.01,2013-05-28 12:40:00,
2013-05-28 07:41:00,69.8,63.0,29.81,SE,140,0.0,14.0,79,0.00,,CLR,0.00,VWS V14.01,2013-05-28 12:41:00,
2013-05-28 07:42:00,69.8,63.0,29.81,SSW,200,0.0,14.0,79,0.00,,CLR,0.00,VWS V14.01,2013-05-28 12:42:00,
2013-05-28 07:44:00,69.8,63.4,29.81,SSE,162,0.0,14.0,80,0.00,,CLR,0.00,VWS V14.01,2013-05-28 12:44:00,
2013-05-28 07:45:00,69.8,63.4,29.81,South,184,5.0,14.0,80,0.00,,CLR,0.00,VWS V14.01,2013-05-28 12:45:00,
2013-05-28 07:46:00,69.8,63.4,29.81,South,188,1.0,14.0,80,0.00,,CLR,0.00,VWS V14.01,2013-05-28 12:46:00,
2013-05-28 07:47:00,69.8,63.0,29.81,SSW,210,1.0,14.0,79,0.00,,CLR,0.00,VWS V14.01,2013-05-28 12:47:00,
2013-05-28 07:49:00,70.0,63.2,29.81,South,189,0.0,14.0,79,0.00,,CLR,0.00,VWS V14.01,2013-05-28 12:49:00,
2013-05-28 07:51:00,70.2,63.4,29.81,SSW,192,3.0,14.0,79,0.00,,CLR,0.00,VWS V14.01,2013-05-28 12:51:00,
2013-05-28 07:52:00,70.2,63.4,29.81,SSW,194,0.0,14.0,79,0.00,,CLR,0.00,VWS V14.01,2013-05-28 12:52:00,
2013-05-28 07:54:00,70.3,63.1,29.81,SSW,200,2.0,14.0,78,0.00,,CLR,0.00,VWS V14.01,2013-05-28 12:54:00,
2013-05-28 07:55:00,70.3,63.1,29.81,SSW,200,2.0,14.0,78,0.00,,CLR,0.00,VWS V14.01,2013-05-28 12:55:00,
2013-05-28 07:56:00,70.5,63.3,29.81,SSW,198,3.0,14.0,78,0.00,,CLR,0.00,VWS V14.01,2013-05-28 12:56:00,
2013-05-28 07:57:00,70.5,63.3,29.81,SSW,198,4.0,14.0,78,0.00,,CLR,0.00,VWS V14.01,2013-05-28 12:57:00,
2013-05-28 07:59:00,70.5,63.3,29.81,South,181,0.0,16.0,78,0.00,,CLR,0.00,VWS V14.01,2013-05-28 12:59:00,
2013-05-28 08:00:00,70.7,63.5,29.81,South,191,0.0,16.0,78,0.00,,CLR,0.00,VWS V14.01,2013-05-28 13:00:00,
2013-05-28 08:01:00,70.7,63.5,29.81,South,186,0.0,2.0,78,0.00,,CLR,0.00,VWS V14.01,2013-05-28 13:01:00,
2013-05-28 08:02:00,70.7,63.5,29.81,SSW,205,1.0,9.0,78,0.00,,CLR,0.00,VWS V14.01,2013-05-28 13:02:00,
2013-05-28 08:03:00,70.7,63.5,29.81,SSW,211,2.0,9.0,78,0.00,,CLR,0.00,VWS V14.01,2013-05-28 13:03:00,
2013-05-28 08:05:00,70.7,63.5,29.81,SSW,211,11.0,11.0,78,0.00,,CLR,0.00,VWS V14.01,2013-05-28 13:05:00,
2013-05-28 08:07:00,70.8,63.6,29.81,SSW,198,0.0,15.0,78,0.00,,CLR,0.00,VWS V14.01,2013-05-28 13:07:00,
2013-05-28 08:08:00,70.8,63.6,29.81,SSW,203,4.0,15.0,78,0.00,,CLR,0.00,VWS V14.01,2013-05-28 13:08:00,
2013-05-28 08:10:00,71.0,63.8,29.81,SSW,206,5.0,15.0,78,0.00,,CLR,0.00,VWS V14.01,2013-05-28 13:10:00,
2013-05-28 08:12:00,71.0,63.8,29.81,South,186,0.0,15.0,78,0.00,,CLR,0.00,VWS V14.01,2013-05-28 13:12:00,
2013-05-28 08:13:00,71.0,63.8,29.81,South,190,0.0,15.0,78,0.00,,CLR,0.00,VWS V14.01,2013-05-28 13:13:00,
2013-05-28 08:15:00,71.2,64.0,29.81,SSE,152,0.0,15.0,78,0.00,,CLR,0.00,VWS V14.01,2013-05-28 13:15:00,
2013-05-28 08:17:00,71.2,63.6,29.81,SSW,193,0.0,15.0,77,0.00,,CLR,0.00,VWS V14.01,2013-05-28 13:17:00,
2013-05-28 08:18:00,71.2,63.6,29.81,SSW,194,0.0,15.0,77,0.00,,CLR,0.00,VWS V14.01,2013-05-28 13:18:00,
2013-05-28 08:20:00,71.2,63.6,29.81,SSW,196,4.0,15.0,77,0.00,,CLR,0.00,VWS V14.01,2013-05-28 13:20:00,
2013-05-28 08:22:00,71.4,63.8,29.81,South,183,3.0,15.0,77,0.00,,CLR,0.00,VWS V14.01,2013-05-28 13:22:00,
2013-05-28 08:23:00,71.4,63.8,29.81,South,190,1.0,15.0,77,0.00,,CLR,0.00,VWS V14.01,2013-05-28 13:23:00,
2013-05-28 08:25:00,71.4,63.8,29.81,South,186,0.0,15.0,77,0.00,,CLR,0.00,VWS V14.01,2013-05-28 13:25:00,
2013-05-28 08:28:00,71.4,64.2,29.81,SSW,194,1.0,15.0,78,0.00,,CLR,0.00,VWS V14.01,2013-05-28 13:28:00,
2013-05-28 08:29:00,71.4,64.2,29.81,South,188,12.0,15.0,78,0.00,,CLR,0.00,VWS V14.01,2013-05-28 13:29:00,
2013-05-28 08:30:00,71.4,63.8,29.81,South,190,3.0,16.0,77,0.00,,CLR,0.00,VWS V14.01,2013-05-28 13:30:00,
2013-05-28 08:33:00,71.4,63.8,29.81,South,169,0.0,12.0,77,0.00,,CLR,0.00,VWS V14.01,2013-05-28 13:33:00,
2013-05-28 08:34:00,71.4,63.8,29.81,SSW,199,2.0,12.0,77,0.00,,CLR,0.00,VWS V14.01,2013-05-28 13:34:00,
2013-05-28 08:35:00,71.4,64.2,29.81,South,182,1.0,12.0,78,0.00,,CLR,0.00,VWS V14.01,2013-05-28 13:35:00,
2013-05-28 08:36:00,71.4,64.2,29.81,South,189,0.0,12.0,78,0.00,,CLR,0.00,VWS V14.01,2013-05-28 13:36:00,
2013-05-28 08:38:00,71.4,64.2,29.81,SSW,198,2.0,12.0,78,0.00,,CLR,0.00,VWS V14.01,2013-05-28 13:38:00,
2013-05-28 08:39:00,71.4,64.2,29.81,SSW,198,0.0,12.0,78,0.00,,CLR,0.00,VWS V14.01,2013-05-28 13:39:00,
2013-05-28 08:41:00,71.4,64.2,29.81,South,188,0.0,12.0,78,0.00,,CLR,0.00,VWS V14.01,2013-05-28 13:41:00,
2013-05-28 08:44:00,71.5,64.3,29.81,SSW,200,3.0,12.0,78,0.00,,CLR,0.00,VWS V14.01,2013-05-28 13:44:00,
2013-05-28 08:46:00,71.5,63.9,29.80,SSW,197,5.0,13.0,77,0.00,,CLR,0.00,VWS V14.01,2013-05-28 13:46:00,
2013-05-28 08:49:00,71.5,64.3,29.80,South,191,2.0,13.0,78,0.00,,CLR,0.00,VWS V14.01,2013-05-28 13:49:00,
2013-05-28 08:51:00,71.7,64.5,29.80,SSW,192,2.0,13.0,78,0.00,,CLR,0.00,VWS V14.01,2013-05-28 13:51:00,
2013-05-28 08:54:00,71.7,64.5,29.80,WSW,246,0.0,13.0,78,0.00,,CLR,0.00,VWS V14.01,2013-05-28 13:54:00,
2013-05-28 08:55:00,71.7,64.5,29.80,SSW,194,0.0,13.0,78,0.00,,CLR,0.00,VWS V14.01,2013-05-28 13:55:00,
2013-05-28 08:56:00,71.9,64.7,29.80,SSW,196,0.0,13.0,78,0.00,,CLR,0.00,VWS V14.01,2013-05-28 13:56:00,
2013-05-28 08:57:00,71.9,64.7,29.80,SSW,196,0.0,13.0,78,0.00,,CLR,0.00,VWS V14.01,2013-05-28 13:57:00,
2013-05-28 08:59:00,71.9,64.7,29.80,SE,126,0.0,13.0,78,0.00,,CLR,0.00,VWS V14.01,2013-05-28 13:59:00,
2013-05-28 09:00:00,71.9,64.7,29.81,SSW,200,5.0,13.0,78,0.00,,CLR,0.00,VWS V14.01,2013-05-28 14:00:00,
2013-05-28 09:02:00,71.9,64.3,29.81,SSW,205,6.0,9.0,77,0.00,,SCT090,0.00,VWS V14.01,2013-05-28 14:02:00,
2013-05-28 09:04:00,71.9,64.3,29.81,SSW,201,1.0,10.0,77,0.00,,SCT090,0.00,VWS V14.01,2013-05-28 14:04:00,
2013-05-28 09:05:00,71.9,64.3,29.81,SSW,201,4.0,10.0,77,0.00,,SCT090,0.00,VWS V14.01,2013-05-28 14:05:00,
2013-05-28 09:07:00,71.9,64.7,29.81,SSW,204,0.0,12.0,78,0.00,,SCT090,0.00,VWS V14.01,2013-05-28 14:07:00,
2013-05-28 09:09:00,71.9,64.7,29.81,South,189,0.0,12.0,78,0.00,,SCT090,0.00,VWS V14.01,2013-05-28 14:09:00,
2013-05-28 09:10:00,71.9,64.7,29.81,SSW,204,12.0,16.0,78,0.00,,SCT090,0.00,VWS V14.01,2013-05-28 14:10:00,
2013-05-28 09:12:00,71.7,64.5,29.81,SSW,209,0.0,16.0,78,0.00,,SCT090,0.00,VWS V14.01,2013-05-28 14:12:00,
2013-05-28 09:15:00,71.5,64.3,29.82,SSW,213,5.0,16.0,78,0.00,,SCT090,0.00,VWS V14.01,2013-05-28 14:15:00,
2013-05-28 09:17:00,71.5,64.7,29.82,SSW,195,1.0,16.0,79,0.00,,SCT090,0.00,VWS V14.01,2013-05-28 14:17:00,
2013-05-28 09:20:00,71.4,64.9,29.82,South,190,0.0,16.0,80,0.00,,SCT090,0.00,VWS V14.01,2013-05-28 14:20:00,
2013-05-28 09:22:00,71.2,64.7,29.82,SSW,196,2.0,16.0,80,0.01,,SCT090,0.01,VWS V14.01,2013-05-28 14:22:00,
2013-05-28 09:25:00,70.8,64.7,29.82,SSW,213,6.0,16.0,81,0.01,,SCT090,0.01,VWS V14.01,2013-05-28 14:25:00,
2013-05-28 09:27:00,70.5,64.8,29.82,South,191,1.0,16.0,82,0.02,,SCT090,0.02,VWS V14.01,2013-05-28 14:27:00,
2013-05-28 09:30:00,70.2,64.8,29.81,SSW,192,0.0,16.0,83,0.02,,SCT090,0.02,VWS V14.01,2013-05-28 14:30:00,
2013-05-28 09:32:00,70.0,64.9,29.81,SW,214,0.0,0.0,84,0.02,,SCT090,0.02,VWS V14.01,2013-05-28 14:32:00,
2013-05-28 09:33:00,70.0,64.9,29.81,SW,216,0.0,0.0,84,0.02,,SCT090,0.02,VWS V14.01,2013-05-28 14:33:00,
2013-05-28 09:35:00,69.8,64.8,29.81,SSW,196,0.0,1.0,84,0.02,,SCT090,0.02,VWS V14.01,2013-05-28 14:35:00,
2013-05-28 09:36:00,69.7,65.0,29.81,SSW,196,0.0,1.0,85,0.03,,SCT090,0.03,VWS V14.01,2013-05-28 14:36:00,
2013-05-28 09:38:00,69.7,65.0,29.81,SSW,197,0.0,1.0,85,0.03,,SCT090,0.03,VWS V14.01,2013-05-28 14:38:00,
2013-05-28 09:40:00,69.5,65.1,29.81,SSW,197,0.0,1.0,86,0.03,,SCT090,0.03,VWS V14.01,2013-05-28 14:40:00,
2013-05-28 09:41:00,69.5,65.1,29.81,SSW,197,0.0,1.0,86,0.03,,SCT090,0.03,VWS V14.01,2013-05-28 14:41:00,
2013-05-28 09:43:00,69.3,64.9,29.81,SSW,196,0.0,1.0,86,0.03,,SCT090,0.03,VWS V14.01,2013-05-28 14:43:00,
2013-05-28 09:45:00,69.3,65.3,29.83,South,183,0.0,1.0,87,0.04,,SCT090,0.04,VWS V14.01,2013-05-28 14:45:00,
2013-05-28 09:46:00,69.2,65.2,29.83,South,183,0.0,1.0,87,0.04,,SCT090,0.04,VWS V14.01,2013-05-28 14:46:00,
2013-05-28 09:48:00,69.2,65.5,29.83,South,183,0.0,1.0,88,0.04,,SCT090,0.04,VWS V14.01,2013-05-28 14:48:00,
2013-05-28 09:50:00,69.0,65.3,29.83,South,183,0.0,1.0,88,0.05,,SCT090,0.05,VWS V14.01,2013-05-28 14:50:00,
2013-05-28 09:51:00,69.0,65.3,29.83,South,183,0.0,1.0,88,0.05,,SCT090,0.05,VWS V14.01,2013-05-28 14:51:00,
2013-05-28 09:53:00,69.0,65.3,29.83,SSW,195,5.0,11.0,88,0.05,,SCT090,0.05,VWS V14.01,2013-05-28 14:53:00,
2013-05-28 09:56:00,68.8,65.1,29.83,South,186,3.0,11.0,88,0.05,,SCT090,0.05,VWS V14.01,2013-05-28 14:56:00,
2013-05-28 09:57:00,68.8,65.1,29.83,South,172,0.0,11.0,88,0.05,,SCT090,0.05,VWS V14.01,2013-05-28 14:57:00,
2013-05-28 09:58:00,68.7,65.0,29.83,SSW,194,5.0,11.0,88,0.05,,SCT090,0.05,VWS V14.01,2013-05-28 14:58:00,
2013-05-28 10:00:00,68.7,65.3,29.80,South,190,3.0,11.0,89,0.05,,,0.05,VWS V14.01,2013-05-28 15:00:00,
2013-05-28 10:01:00,68.7,65.3,29.80,South,190,3.0,11.0,89,0.05,,SCT090,0.05,VWS V14.01,2013-05-28 15:01:00,
2013-05-28 10:02:00,68.5,65.1,29.80,SSW,194,3.0,12.0,89,0.05,,-RA,0.05,VWS V14.01,2013-05-28 15:02:00,
2013-05-28 10:03:00,68.5,65.1,29.80,SSW,196,1.0,12.0,89,0.06,,-RA,0.06,VWS V14.01,2013-05-28 15:03:00,
2013-05-28 10:04:00,68.5,65.1,29.80,SSW,196,0.0,12.0,89,0.06,,-RA,0.06,VWS V14.01,2013-05-28 15:04:00,
2013-05-28 10:06:00,68.5,65.1,29.80,SSW,210,0.0,12.0,89,0.06,,-RA,0.06,VWS V14.01,2013-05-28 15:06:00,
2013-05-28 10:07:00,68.5,65.1,29.80,South,171,2.0,13.0,89,0.06,,-RA,0.06,VWS V14.01,2013-05-28 15:07:00,
2013-05-28 10:09:00,68.5,65.1,29.80,SSW,196,2.0,15.0,89,0.06,,-RA,0.06,VWS V14.01,2013-05-28 15:09:00,
2013-05-28 10:11:00,68.5,65.1,29.80,SW,217,3.0,15.0,89,0.06,,-RA,0.06,VWS V14.01,2013-05-28 15:11:00,
2013-05-28 10:12:00,68.5,65.1,29.80,SSW,197,6.0,15.0,89,0.06,,-RA,0.06,VWS V14.01,2013-05-28 15:12:00,
2013-05-28 10:14:00,68.5,65.1,29.80,South,179,0.0,15.0,89,0.06,,-RA,0.06,VWS V14.01,2013-05-28 15:14:00,
2013-05-28 10:16:00,68.5,65.1,29.80,SSW,199,0.0,15.0,89,0.06,,-RA,0.06,VWS V14.01,2013-05-28 15:16:00,
2013-05-28 10:17:00,68.5,65.1,29.80,SSW,207,11.0,15.0,89,0.06,,-RA,0.06,VWS V14.01,2013-05-28 15:17:00,
2013-05-28 10:19:00,68.5,65.1,29.80,SSW,200,4.0,19.0,89,0.06,,-RA,0.06,VWS V14.01,2013-05-28 15:19:00,
2013-05-28 10:21:00,68.7,65.3,29.80,South,184,0.0,19.0,89,0.06,,-RA,0.06,VWS V14.01,2013-05-28 15:21:00,
2013-05-28 10:22:00,68.7,65.3,29.80,SSW,195,2.0,19.0,89,0.06,,-RA,0.06,VWS V14.01,2013-05-28 15:22:00,
2013-05-28 10:24:00,68.5,65.1,29.80,SSW,202,9.0,19.0,89,0.06,,-RA,0.06,VWS V14.01,2013-05-28 15:24:00,
2013-05-28 10:25:00,68.5,65.1,29.80,SSW,196,5.0,19.0,89,0.06,,-RA,0.06,VWS V14.01,2013-05-28 15:25:00,
2013-05-28 10:26:00,68.5,65.1,29.80,SW,219,8.0,22.0,89,0.06,,-RA,0.06,VWS V14.01,2013-05-28 15:26:00,
2013-05-28 10:27:00,68.5,65.1,29.80,South,177,1.0,22.0,89,0.06,,-RA,0.06,VWS V14.01,2013-05-28 15:27:00,
2013-05-28 10:30:00,68.5,65.1,29.79,SW,215,2.0,22.0,89,0.06,,-RA,0.06,VWS V14.01,2013-05-28 15:30:00,
2013-05-28 10:31:00,68.5,65.1,29.79,South,178,1.0,6.0,89,0.04,,-RA,0.06,VWS V14.01,2013-05-28 15:31:00,
2013-05-28 10:32:00,68.5,65.1,29.79,SSW,206,5.0,6.0,89,0.05,,-RA,0.07,VWS V14.01,2013-05-28 15:32:00,
2013-05-28 10:33:00,68.5,65.5,29.79,SSW,198,1.0,6.0,90,0.05,,-RA,0.07,VWS V14.01,2013-05-28 15:33:00,
2013-05-28 10:35:00,68.5,65.5,29.79,SSE,164,2.0,19.0,90,0.05,,-RA,0.07,VWS V14.01,2013-05-28 15:35:00,
2013-05-28 10:36:00,68.5,65.5,29.79,South,190,0.0,19.0,90,0.05,,-RA,0.07,VWS V14.01,2013-05-28 15:36:00,
2013-05-28 10:37:00,68.7,65.7,29.79,SSW,197,10.0,19.0,90,0.05,,-RA,0.07,VWS V14.01,2013-05-28 15:37:00,
2013-05-28 10:38:00,68.7,65.7,29.79,SSW,204,4.0,19.0,90,0.05,,-RA,0.07,VWS V14.01,2013-05-28 15:38:00,
2013-05-28 10:40:00,68.7,65.7,29.79,SSW,204,0.0,19.0,90,0.05,,-RA,0.07,VWS V14.01,2013-05-28 15:40:00,
2013-05-28 10:41:00,68.7,65.7,29.79,SSW,199,5.0,19.0,90,0.05,,-RA,0.07,VWS V14.01,2013-05-28 15:41:00,
2013-05-28 10:42:00,68.7,65.7,29.79,SSW,200,0.0,19.0,90,0.05,,-RA,0.07,VWS V14.01,2013-05-28 15:42:00,
2013-05-28 10:44:00,68.7,65.7,29.79,SSW,202,0.0,19.0,90,0.05,,-RA,0.07,VWS V14.01,2013-05-28 15:44:00,
2013-05-28 10:46:00,68.7,65.7,29.82,South,180,11.0,19.0,90,0.05,,-RA,0.07,VWS V14.01,2013-05-28 15:46:00,
2013-05-28 10:47:00,68.7,65.7,29.82,SSW,197,9.0,19.0,90,0.05,,-RA,0.07,VWS V14.01,2013-05-28 15:47:00,
2013-05-28 10:49:00,68.7,65.7,29.82,South,182,6.0,19.0,90,0.05,,-RA,0.07,VWS V14.01,2013-05-28 15:49:00,
2013-05-28 10:51:00,68.8,65.8,29.82,SSE,159,3.0,19.0,90,0.05,,-RA,0.07,VWS V14.01,2013-05-28 15:51:00,
2013-05-28 10:52:00,68.8,65.4,29.82,SSW,198,1.0,19.0,89,0.05,,-RA,0.07,VWS V14.01,2013-05-28 15:52:00,
2013-05-28 10:54:00,68.8,65.4,29.82,South,181,0.0,19.0,89,0.05,,-RA,0.07,VWS V14.01,2013-05-28 15:54:00,
2013-05-28 10:56:00,68.8,65.4,29.82,SSW,198,0.0,19.0,89,0.05,,-RA,0.07,VWS V14.01,2013-05-28 15:56:00,
2013-05-28 10:57:00,68.8,65.4,29.82,SSW,205,2.0,19.0,89,0.05,,-RA,0.07,VWS V14.01,2013-05-28 15:57:00,
2013-05-28 10:59:00,68.8,65.4,29.82,South,188,5.0,19.0,89,0.05,,-RA,0.07,VWS V14.01,2013-05-28 15:59:00,
2013-05-28 11:00:00,68.8,65.4,29.82,SSW,205,5.0,19.0,89,0.05,,,0.07,VWS V14.01,2013-05-28 16:00:00,
2013-05-28 11:01:00,69.0,65.6,29.82,SSW,206,2.0,5.0,89,0.02,,-RA,0.07,VWS V14.01,2013-05-28 16:01:00,
2013-05-28 11:02:00,69.0,65.6,29.82,SSW,197,1.0,5.0,89,0.02,,-RA,0.07,VWS V14.01,2013-05-28 16:02:00,
2013-05-28 11:03:00,69.0,65.6,29.82,SSW,208,2.0,9.0,89,0.02,,-RA,0.07,VWS V14.01,2013-05-28 16:03:00,
2013-05-28 11:04:00,69.0,65.6,29.82,SSW,208,4.0,9.0,89,0.02,,-RA,0.07,VWS V14.01,2013-05-28 16:04:00,
2013-05-28 11:06:00,69.0,65.6,29.82,SSW,211,3.0,17.0,89,0.02,,-RA,0.07,VWS V14.01,2013-05-28 16:06:00,
2013-05-28 11:07:00,69.0,65.6,29.82,South,174,0.0,17.0,89,0.02,,-RA,0.07,VWS V14.01,2013-05-28 16:07:00,
2013-05-28 11:08:00,69.0,65.6,29.82,South,176,0.0,17.0,89,0.02,,-RA,0.07,VWS V14.01,2013-05-28 16:08:00,
2013-05-28 11:09:00,69.0,65.6,29.82,SSW,200,3.0,19.0,89,0.02,,-RA,0.07,VWS V14.01,2013-05-28 16:09:00,
2013-05-28 11:12:00,69.0,65.6,29.82,NW,313,6.0,19.0,89,0.02,,-RA,0.07,VWS V14.01,2013-05-28 16:12:00,
2013-05-28 11:13:00,69.0,65.6,29.82,SSW,207,0.0,19.0,89,0.02,,-RA,0.07,VWS V14.01,2013-05-28 16:13:00,
2013-05-28 11:14:00,69.0,65.6,29.82,SW,217,0.0,19.0,89,0.02,,-RA,0.07,VWS V14.01,2013-05-28 16:14:00,
2013-05-28 11:17:00,69.0,65.6,29.82,SSW,211,2.0,19.0,89,0.02,,SCT120,0.07,VWS V14.01,2013-05-28 16:17:00,
2013-05-28 11:18:00,69.0,65.6,29.82,SSW,205,2.0,19.0,89,0.02,,SCT120,0.07,VWS V14.01,2013-05-28 16:18:00,
2013-05-28 11:19:00,69.2,65.8,29.82,SSW,196,12.0,19.0,89,0.02,,SCT120,0.07,VWS V14.01,2013-05-28 16:19:00,
2013-05-28 11:22:00,69.2,65.5,29.82,SW,217,2.0,19.0,88,0.02,,SCT120,0.07,VWS V14.01,2013-05-28 16:22:00,
2013-05-28 11:23:00,69.2,65.5,29.82,South,189,2.0,19.0,88,0.02,,SCT120,0.07,VWS V14.01,2013-05-28 16:23:00,
2013-05-28 11:25:00,69.2,65.5,29.82,SW,224,18.0,20.0,88,0.02,,SCT120,0.07,VWS V14.01,2013-05-28 16:25:00,
2013-05-28 11:27:00,69.3,65.6,29.82,SSW,202,17.0,20.0,88,0.03,,SCT120,0.08,VWS V14.01,2013-05-28 16:27:00,
2013-05-28 11:28:00,69.3,65.3,29.82,South,191,10.0,20.0,87,0.03,,SCT120,0.08,VWS V14.01,2013-05-28 16:28:00,
2013-05-28 11:30:00,69.3,65.3,29.80,South,185,6.0,20.0,87,0.03,,SCT120,0.08,VWS V14.01,2013-05-28 16:30:00,
2013-05-28 11:32:00,69.3,65.3,29.80,South,169,2.0,11.0,87,0.02,,SCT120,0.08,VWS V14.01,2013-05-28 16:32:00,
2013-05-28 11:33:00,69.3,65.3,29.80,SSW,208,19.0,29.0,87,0.02,,SCT120,0.08,VWS V14.01,2013-05-28 16:33:00,
2013-05-28 11:35:00,69.2,65.2,29.80,South,176,13.0,29.0,87,0.02,,SCT120,0.08,VWS V14.01,2013-05-28 16:35:00,
2013-05-28 11:37:00,69.2,65.2,29.80,SSW,194,1.0,29.0,87,0.02,,SCT120,0.08,VWS V14.01,2013-05-28 16:37:00,
2013-05-28 11:38:00,69.2,65.5,29.80,South,178,1.0,29.0,88,0.02,,SCT120,0.08,VWS V14.01,2013-05-28 16:38:00,
2013-05-28 11:41:00,69.3,65.3,29.80,South,186,3.0,29.0,87,0.02,,SCT120,0.08,VWS V14.01,2013-05-28 16:41:00,
2013-05-28 11:42:00,69.3,65.3,29.80,South,180,11.0,29.0,87,0.02,,SCT120,0.08,VWS V14.01,2013-05-28 16:42:00,
2013-05-28 11:43:00,69.3,65.3,29.80,SW,231,16.0,29.0,87,0.02,,SCT120,0.08,VWS V14.01,2013-05-28 16:43:00,
2013-05-28 11:46:00,69.5,65.5,29.75,SSW,195,2.0,29.0,87,0.03,,SCT120,0.09,VWS V14.01,2013-05-28 16:46:00,
2013-05-28 11:48:00,69.5,65.5,29.75,South,184,13.0,29.0,87,0.03,,SCT120,0.09,VWS V14.01,2013-05-28 16:48:00,
2013-05-28 11:51:00,69.5,65.5,29.75,South,187,11.0,29.0,87,0.03,,SCT120,0.09,VWS V14.01,2013-05-28 16:51:00,
2013-05-28 11:53:00,69.7,65.7,29.75,South,189,4.0,29.0,87,0.03,,SCT120,0.09,VWS V14.01,2013-05-28 16:53:00,
2013-05-28 11:54:00,69.7,65.7,29.75,SSW,192,5.0,29.0,87,0.03,,SCT120,0.09,VWS V14.01,2013-05-28 16:54:00,
2013-05-28 11:56:00,69.7,65.7,29.75,South,180,2.0,29.0,87,0.03,,SCT120,0.09,VWS V14.01,2013-05-28 16:56:00,
2013-05-28 11:58:00,69.7,65.7,29.75,SSE,165,0.0,29.0,87,0.03,,SCT120,0.09,VWS V14.01,2013-05-28 16:58:00,
2013-05-28 11:59:00,69.7,66.0,29.75,South,182,2.0,29.0,88,0.03,,SCT120,0.09,VWS V14.01,2013-05-28 16:59:00,
2013-05-28 12:00:00,69.5,65.8,29.77,SSW,196,0.0,29.0,88,0.03,,,0.09,VWS V14.01,2013-05-28 17:00:00,
2013-05-28 12:01:00,69.5,65.8,29.77,SSW,198,0.0,3.0,88,0.02,,SCT120,0.09,VWS V14.01,2013-05-28 17:01:00,
2013-05-28 12:03:00,69.5,65.8,29.77,SSW,213,9.0,15.0,88,0.02,,-RA,0.09,VWS V14.01,2013-05-28 17:03:00,
2013-05-28 12:04:00,69.5,65.8,29.77,South,179,0.0,15.0,88,0.02,,-RA,0.09,VWS V14.01,2013-05-28 17:04:00,
2013-05-28 12:06:00,69.7,66.0,29.77,SSW,203,0.0,15.0,88,0.02,,-RA,0.09,VWS V14.01,2013-05-28 17:06:00,
2013-05-28 12:08:00,69.7,66.0,29.77,South,186,12.0,15.0,88,0.02,,-RA,0.09,VWS V14.01,2013-05-28 17:08:00,
2013-05-28 12:09:00,69.7,66.0,29.77,SSW,204,2.0,15.0,88,0.02,,-RA,0.09,VWS V14.01,2013-05-28 17:09:00,
2013-05-28 12:11:00,69.8,66.1,29.77,SSW,205,14.0,17.0,88,0.02,,-RA,0.09,VWS V14.01,2013-05-28 17:11:00,
2013-05-28 12:13:00,69.8,65.8,29.77,SSW,196,0.0,17.0,87,0.02,,-RA,0.09,VWS V14.01,2013-05-28 17:13:00,
2013-05-28 12:14:00,70.0,66.0,29.77,SSW,200,4.0,17.0,87,0.02,,-RA,0.09,VWS V14.01,2013-05-28 17:14:00,
2013-05-28 12:16:00,70.0,66.0,29.74,SW,222,14.0,22.0,87,0.02,,-RA,0.09,VWS V14.01,2013-05-28 17:16:00,
2013-05-28 12:18:00,70.0,66.0,29.74,SSE,161,4.0,22.0,87,0.03,,-RA,0.10,VWS V14.01,2013-05-28 17:18:00,
2013-05-28 12:19:00,69.8,65.8,29.74,SSW,212,1.0,22.0,87,0.03,,-RA,0.10,VWS V14.01,2013-05-28 17:19:00,
2013-05-28 12:20:00,69.8,65.8,29.74,SSW,213,7.0,22.0,87,0.03,,-RA,0.10,VWS V14.01,2013-05-28 17:20:00,
2013-05-28 12:21:00,70.0,66.0,29.74,SSW,195,11.0,25.0,87,0.03,,-RA,0.10,VWS V14.01,2013-05-28 17:21:00,
2013-05-28 12:23:00,70.0,66.0,29.74,South,179,0.0,25.0,87,0.03,,-RA,0.10,VWS V14.01,2013-05-28 17:23:00,
2013-05-28 12:24:00,70.0,66.0,29.74,SSW,205,5.0,25.0,87,0.03,,-RA,0.10,VWS V14.01,2013-05-28 17:24:00,
2013-05-28 12:25:00,70.0,66.0,29.74,South,177,0.0,25.0,87,0.03,,-RA,0.10,VWS V14.01,2013-05-28 17:25:00,
2013-05-28 12:26:00,70.2,66.2,29.74,SW,225,0.0,25.0,87,0.03,,-RA,0.10,VWS V14.01,2013-05-28 17:26:00,
2013-05-28 12:29:00,70.3,65.9,29.74,WSW,242,0.0,25.0,86,0.03,,-RA,0.10,VWS V14.01,2013-05-28 17:29:00,
2013-05-28 12:30:00,70.3,65.9,29.78,West,268,0.0,25.0,86,0.03,,-RA,0.10,VWS V14.01,2013-05-28 17:30:00,
2013-05-28 12:31:00,70.3,65.9,29.78,West,273,0.0,1.0,86,0.02,,-RA,0.10,VWS V14.01,2013-05-28 17:31:00,
2013-05-28 12:34:00,70.3,65.9,29.78,SW,215,0.0,2.0,86,0.02,,-RA,0.10,VWS V14.01,2013-05-28 17:34:00,
2013-05-28 12:35:00,70.3,66.2,29.78,SW,228,1.0,2.0,87,0.02,,-RA,0.10,VWS V14.01,2013-05-28 17:35:00,
2013-05-28 12:36:00,70.3,66.2,29.78,SW,215,0.0,2.0,87,0.02,,-RA,0.10,VWS V14.01,2013-05-28 17:36:00,
2013-05-28 12:39:00,70.3,66.2,29.78,SSW,194,0.0,2.0,87,0.02,,-RA,0.10,VWS V14.01,2013-05-28 17:39:00,
2013-05-28 12:40:00,70.3,66.2,29.78,SSW,194,0.0,2.0,87,0.02,,-RA,0.10,VWS V14.01,2013-05-28 17:40:00,
2013-05-28 12:42:00,70.3,66.2,29.78,SSW,198,0.0,4.0,87,0.02,,-RA,0.10,VWS V14.01,2013-05-28 17:42:00,
2013-05-28 12:44:00,70.3,66.2,29.78,South,189,0.0,7.0,87,0.02,,-RA,0.10,VWS V14.01,2013-05-28 17:44:00,
2013-05-28 12:45:00,70.3,66.2,29.79,SW,225,2.0,7.0,87,0.02,,-RA,0.10,VWS V14.01,2013-05-28 17:45:00,
2013-05-28 12:46:00,70.5,66.4,29.79,SW,227,0.0,7.0,87,0.02,,-RA,0.10,VWS V14.01,2013-05-28 17:46:00,
2013-05-28 12:47:00,70.3,66.2,29.79,SW,229,0.0,7.0,87,0.02,,-RA,0.10,VWS V14.01,2013-05-28 17:47:00,
2013-05-28 12:49:00,70.5,66.4,29.79,SSW,197,0.0,7.0,87,0.02,,-RA,0.10,VWS V14.01,2013-05-28 17:49:00,
2013-05-28 12:50:00,70.5,66.4,29.79,SSW,205,5.0,7.0,87,0.02,,-RA,0.10,VWS V14.01,2013-05-28 17:50:00,
2013-05-28 12:51:00,70.5,66.4,29.79,SSW,206,0.0,7.0,87,0.02,,-RA,0.10,VWS V14.01,2013-05-28 17:51:00,
2013-05-28 12:52:00,70.5,66.4,29.79,South,179,6.0,7.0,87,0.02,,-RA,0.10,VWS V14.01,2013-05-28 17:52:00,
2013-05-28 12:54:00,70.5,66.1,29.79,South,169,14.0,15.0,86,0.02,,-RA,0.10,VWS V14.01,2013-05-28 17:54:00,
2013-05-28 12:55:00,70.5,66.1,29.79,SSW,210,4.0,15.0,86,0.02,,-RA,0.10,VWS V14.01,2013-05-28 17:55:00,
2013-05-28 12:56:00,70.7,66.3,29.79,SSW,208,0.0,15.0,86,0.02,,-RA,0.10,VWS V14.01,2013-05-28 17:56:00,
2013-05-28 12:57:00,70.7,66.3,29.79,SSW,208,0.0,15.0,86,0.02,,-RA,0.10,VWS V14.01,2013-05-28 17:57:00,
2013-05-28 12:59:00,70.7,66.3,29.79,SSW,206,3.0,15.0,86,0.02,,-RA,0.10,VWS V14.01,2013-05-28 17:59:00,
2013-05-28 13:00:00,70.7,66.3,29.78,South,174,0.0,15.0,86,0.02,,-RA,0.10,VWS V14.01,2013-05-28 18:00:00,
2013-05-28 13:01:00,70.7,66.3,29.78,SSW,207,4.0,6.0,86,0.01,,CLR,0.10,VWS V14.01,2013-05-28 18:01:00,
2013-05-28 13:02:00,70.7,66.3,29.78,SSW,194,0.0,6.0,86,0.01,,CLR,0.10,VWS V14.01,2013-05-28 18:02:00,
2013-05-28 13:05:00,70.8,66.4,29.78,South,184,0.0,13.0,86,0.01,,CLR,0.10,VWS V14.01,2013-05-28 18:05:00,
2013-05-28 13:06:00,70.8,66.4,29.78,SW,217,4.0,13.0,86,0.01,,CLR,0.10,VWS V14.01,2013-05-28 18:06:00,
2013-05-28 13:07:00,70.8,66.1,29.78,SW,216,7.0,13.0,85,0.01,,CLR,0.10,VWS V14.01,2013-05-28 18:07:00,
2013-05-28 13:10:00,71.2,66.5,29.78,SSW,199,2.0,21.0,85,0.01,,CLR,0.10,VWS V14.01,2013-05-28 18:10:00,
2013-05-28 13:11:00,71.4,66.3,29.78,SSW,192,0.0,21.0,84,0.01,,CLR,0.10,VWS V14.01,2013-05-28 18:11:00,
2013-05-28 13:12:00,71.4,66.3,29.78,SSW,201,11.0,21.0,84,0.01,,CLR,0.10,VWS V14.01,2013-05-28 18:12:00,
2013-05-28 13:15:00,71.5,66.4,29.78,South,187,3.0,21.0,84,0.01,,CLR,0.10,VWS V14.01,2013-05-28 18:15:00,
2013-05-28 13:16:00,71.5,66.4,29.78,SW,216,1.0,21.0,84,0.01,,CLR,0.10,VWS V14.01,2013-05-28 18:16:00,
2013-05-28 13:17:00,71.5,66.4,29.78,South,173,6.0,21.0,84,0.01,,CLR,0.10,VWS V14.01,2013-05-28 18:17:00,
2013-05-28 13:20:00,71.7,66.3,29.78,South,191,1.0,21.0,83,0.01,,CLR,0.10,VWS V14.01,2013-05-28 18:20:00,
2013-05-28 13:21:00,71.7,66.3,29.78,SSW,193,16.0,21.0,83,0.01,,CLR,0.10,VWS V14.01,2013-05-28 18:21:00,
2013-05-28 13:22:00,71.9,66.5,29.78,SSW,205,1.0,21.0,83,0.01,,CLR,0.10,VWS V14.01,2013-05-28 18:22:00,
2013-05-28 13:23:00,71.9,66.5,29.78,SSW,209,5.0,21.0,83,0.01,,CLR,0.10,VWS V14.01,2013-05-28 18:23:00,
2013-05-28 13:25:00,72.0,66.6,29.78,South,173,8.0,21.0,83,0.01,,CLR,0.10,VWS V14.01,2013-05-28 18:25:00,
2013-05-28 13:26:00,72.2,66.8,29.78,SSW,201,10.0,21.0,83,0.01,,CLR,0.10,VWS V14.01,2013-05-28 18:26:00,
2013-05-28 13:27:00,72.2,66.4,29.78,South,191,4.0,21.0,82,0.01,,CLR,0.10,VWS V14.01,2013-05-28 18:27:00,
2013-05-28 13:28:00,72.2,66.4,29.78,South,186,1.0,21.0,82,0.01,,CLR,0.10,VWS V14.01,2013-05-28 18:28:00,
2013-05-28 13:30:00,72.6,66.4,29.75,SSW,199,4.0,26.0,81,0.01,,,0.10,VWS V14.01,2013-05-28 18:30:00,
2013-05-28 13:31:00,72.6,66.4,29.75,SSW,194,18.0,18.0,81,0.00,,CLR,0.10,VWS V14.01,2013-05-28 18:31:00,
2013-05-28 13:33:00,72.7,66.5,29.75,SSW,205,7.0,20.0,81,0.00,,CLR,0.10,VWS V14.01,2013-05-28 18:33:00,
2013-05-28 13:36:00,72.9,66.7,29.75,SSW,202,0.0,20.0,81,0.00,,CLR,0.10,VWS V14.01,2013-05-28 18:36:00,
2013-05-28 13:37:00,72.9,66.7,29.75,SSW,207,8.0,20.0,81,0.00,,CLR,0.10,VWS V14.01,2013-05-28 18:37:00,
2013-05-28 13:38:00,72.9,66.7,29.75,SSW,213,2.0,21.0,81,0.00,,CLR,0.10,VWS V14.01,2013-05-28 18:38:00,
2013-05-28 13:41:00,73.2,67.0,29.75,SSW,202,18.0,22.0,81,0.00,,CLR,0.10,VWS V14.01,2013-05-28 18:41:00,
2013-05-28 13:42:00,73.4,67.2,29.75,SSW,202,1.0,22.0,81,0.00,,CLR,0.10,VWS V14.01,2013-05-28 18:42:00,
2013-05-28 13:43:00,73.6,67.1,29.75,South,177,12.0,22.0,80,0.00,,CLR,0.10,VWS V14.01,2013-05-28 18:43:00,
2013-05-28 13:46:00,74.1,67.2,29.76,South,180,9.0,26.0,79,0.00,,CLR,0.10,VWS V14.01,2013-05-28 18:46:00,
2013-05-28 13:47:00,74.5,67.6,29.76,SSE,167,11.0,26.0,79,0.00,,CLR,0.10,VWS V14.01,2013-05-28 18:47:00,
2013-05-28 13:48:00,74.5,67.6,29.76,SSW,192,17.0,26.0,79,0.00,,CLR,0.10,VWS V14.01,2013-05-28 18:48:00,
2013-05-28 13:51:00,74.8,67.5,29.76,SSW,211,2.0,26.0,78,0.00,,CLR,0.10,VWS V14.01,2013-05-28 18:51:00,
2013-05-28 13:52:00,74.8,67.5,29.76,WSW,244,14.0,26.0,78,0.00,,CLR,0.10,VWS V14.01,2013-05-28 18:52:00,
2013-05-28 13:53:00,75.0,67.7,29.76,South,178,1.0,26.0,78,0.00,,CLR,0.10,VWS V14.01,2013-05-28 18:53:00,
2013-05-28 13:56:00,75.0,67.7,29.76,South,173,2.0,26.0,78,0.00,,CLR,0.10,VWS V14.01,2013-05-28 18:56:00,
2013-05-28 13:57:00,75.2,67.9,29.76,South,169,16.0,26.0,78,0.00,,CLR,0.10,VWS V14.01,2013-05-28 18:57:00,
2013-05-28 13:58:00,75.2,67.9,29.76,SE,129,2.0,26.0,78,0.00,,CLR,0.10,VWS V14.01,2013-05-28 18:58:00,
2013-05-28 14:00:00,75.3,68.0,29.76,SSE,151,2.0,26.0,78,0.00,,,0.10,VWS V14.01,2013-05-28 19:00:00,
2013-05-28 14:01:00,75.3,68.0,29.76,SSW,213,5.0,19.0,78,0.00,,CLR,0.10,VWS V14.01,2013-05-28 19:01:00,
2013-05-28 14:02:00,75.5,68.2,29.76,SSW,199,16.0,19.0,78,0.00,,CLR,0.10,VWS V14.01,2013-05-28 19:02:00,
2013-05-28 14:03:00,75.7,68.4,29.76,SSW,192,0.0,19.0,78,0.00,,CLR,0.10,VWS V14.01,2013-05-28 19:03:00,
2013-05-28 14:04:00,75.9,68.6,29.76,SSE,152,3.0,19.0,78,0.00,,CLR,0.10,VWS V14.01,2013-05-28 19:04:00,
2013-05-28 14:06:00,76.4,68.7,29.76,SW,215,11.0,19.0,77,0.00,,CLR,0.10,VWS V14.01,2013-05-28 19:06:00,
2013-05-28 14:07:00,76.6,68.9,29.76,SSE,161,3.0,19.0,77,0.00,,CLR,0.10,VWS V14.01,2013-05-28 19:07:00,
2013-05-28 14:08:00,76.7,68.9,29.76,South,187,10.0,25.0,77,0.00,,CLR,0.10,VWS V14.01,2013-05-28 19:08:00,
2013-05-28 14:09:00,76.9,68.4,29.76,SSW,195,5.0,25.0,75,0.00,,CLR,0.10,VWS V14.01,2013-05-28 19:09:00,
2013-05-28 14:12:00,77.6,68.7,29.76,SSW,198,13.0,25.0,74,0.00,,CLR,0.10,VWS V14.01,2013-05-28 19:12:00,
2013-05-28 14:13:00,77.6,68.3,29.76,SSW,207,5.0,25.0,73,0.00,,CLR,0.10,VWS V14.01,2013-05-28 19:13:00,
2013-05-28 14:14:00,77.8,68.5,29.76,South,190,0.0,25.0,73,0.00,,CLR,0.10,VWS V14.01,2013-05-28 19:14:00,
2013-05-28 14:17:00,77.8,68.5,29.72,South,188,3.0,25.0,73,0.00,,CLR,0.10,VWS V14.01,2013-05-28 19:17:00,
2013-05-28 14:19:00,78.0,68.2,29.72,SSW,207,0.0,25.0,72,0.00,,CLR,0.10,VWS V14.01,2013-05-28 19:19:00,
2013-05-28 14:22:00,78.0,68.2,29.72,SSW,200,0.0,25.0,72,0.00,,CLR,0.10,VWS V14.01,2013-05-28 19:22:00,
2013-05-28 14:24:00,78.0,68.2,29.72,South,191,6.0,25.0,72,0.00,,CLR,0.10,VWS V14.01,2013-05-28 19:24:00,
2013-05-28 14:25:00,78.0,68.2,29.72,South,175,0.0,25.0,72,0.00,,CLR,0.10,VWS V14.01,2013-05-28 19:25:00,
2013-05-28 14:27:00,78.2,68.0,29.72,South,178,4.0,25.0,71,0.00,,CLR,0.10,VWS V14.01,2013-05-28 19:27:00,
2013-05-28 14:29:00,78.2,68.0,29.72,SSW,196,0.0,25.0,71,0.00,,CLR,0.10,VWS V14.01,2013-05-28 19:29:00,
2013-05-28 14:30:00,78.0,68.2,29.73,South,183,21.0,25.0,72,0.00,,CLR,0.10,VWS V14.01,2013-05-28 19:30:00,
2013-05-28 14:32:00,78.0,67.8,29.73,SSW,207,14.0,17.0,71,0.00,,CLR,0.10,VWS V14.01,2013-05-28 19:32:00,
2013-05-28 14:33:00,77.8,67.7,29.73,SE,138,2.0,17.0,71,0.00,,CLR,0.10,VWS V14.01,2013-05-28 19:33:00,
2013-05-28 14:34:00,77.8,67.2,29.73,SSE,166,1.0,17.0,70,0.00,,CLR,0.10,VWS V14.01,2013-05-28 19:34:00,
2013-05-28 14:35:00,77.8,67.2,29.73,South,185,0.0,17.0,70,0.00,,CLR,0.10,VWS V14.01,2013-05-28 19:35:00,
2013-05-28 14:37:00,77.6,67.5,29.73,SSW,209,0.0,17.0,71,0.00,,CLR,0.10,VWS V14.01,2013-05-28 19:37:00,
2013-05-28 14:38:00,77.6,67.5,29.73,SSW,209,0.0,17.0,71,0.00,,CLR,0.10,VWS V14.01,2013-05-28 19:38:00,
2013-05-28 14:39:00,77.6,67.5,29.73,SW,216,0.0,17.0,71,0.00,,CLR,0.10,VWS V14.01,2013-05-28 19:39:00,
2013-05-28 14:40:00,77.6,67.5,29.73,South,190,0.0,17.0,71,0.00,,CLR,0.10,VWS V14.01,2013-05-28 19:40:00,
2013-05-28 14:42:00,77.6,67.9,29.73,SSW,194,0.0,17.0,72,0.00,,CLR,0.10,VWS V14.01,2013-05-28 19:42:00,
2013-05-28 14:43:00,77.6,67.9,29.73,SSW,211,0.0,17.0,72,0.00,,CLR,0.10,VWS V14.01,2013-05-28 19:43:00,
2013-05-28 14:44:00,77.6,67.9,29.73,WSW,241,0.0,17.0,72,0.00,,CLR,0.10,VWS V14.01,2013-05-28 19:44:00,
2013-05-28 14:45:00,77.5,67.8,29.76,WSW,242,0.0,17.0,72,0.00,,CLR,0.10,VWS V14.01,2013-05-28 19:45:00,
2013-05-28 14:47:00,77.5,67.4,29.76,WSW,237,0.0,17.0,71,0.00,,CLR,0.10,VWS V14.01,2013-05-28 19:47:00,
2013-05-28 14:48:00,77.5,67.4,29.76,SSW,210,0.0,17.0,71,0.00,,CLR,0.10,VWS V14.01,2013-05-28 19:48:00,
2013-05-28 14:49:00,77.6,67.9,29.76,SSW,206,3.0,17.0,72,0.00,,CLR,0.10,VWS V14.01,2013-05-28 19:49:00,
2013-05-28 14:50:00,77.6,67.9,29.76,SSW,213,0.0,17.0,72,0.00,,CLR,0.10,VWS V14.01,2013-05-28 19:50:00,
2013-05-28 14:53:00,78.0,67.4,29.76,SSW,207,0.0,17.0,70,0.00,,CLR,0.10,VWS V14.01,2013-05-28 19:53:00,
2013-05-28 14:54:00,78.2,67.2,29.76,SSW,209,3.0,17.0,69,0.00,,CLR,0.10,VWS V14.01,2013-05-28 19:54:00,
2013-05-28 14:55:00,78.4,67.4,29.76,WSW,239,0.0,17.0,69,0.00,,CLR,0.10,VWS V14.01,2013-05-28 19:55:00,
2013-05-28 14:56:00,78.5,67.5,29.76,SSW,205,4.0,17.0,69,0.00,,CLR,0.10,VWS V14.01,2013-05-28 19:56:00,
2013-05-28 14:58:00,78.7,67.3,29.76,WSW,242,0.0,17.0,68,0.00,,CLR,0.10,VWS V14.01,2013-05-28 19:58:00,
2013-05-28 14:59:00,78.7,67.3,29.76,SW,214,3.0,17.0,68,0.00,,CLR,0.10,VWS V14.01,2013-05-28 19:59:00,
2013-05-28 15:00:00,79.1,67.6,29.76,South,188,0.0,17.0,68,0.00,,CLR,0.10,VWS V14.01,2013-05-28 20:00:00,
2013-05-28 15:01:00,79.1,67.6,29.76,SW,215,5.0,7.0,68,0.00,,CLR,0.10,VWS V14.01,2013-05-28 20:01:00,
2013-05-28 15:03:00,79.5,68.0,29.76,SSW,194,0.0,7.0,68,0.00,,CLR,0.10,VWS V14.01,2013-05-28 20:03:00,
2013-05-28 15:04:00,79.5,68.0,29.76,SSW,198,0.0,7.0,68,0.00,,CLR,0.10,VWS V14.01,2013-05-28 20:04:00,
2013-05-28 15:05:00,79.8,68.3,29.76,WSW,257,2.0,7.0,68,0.00,,CLR,0.10,VWS V14.01,2013-05-28 20:05:00,
2013-05-28 15:06:00,79.8,67.9,29.76,South,190,0.0,7.0,67,0.00,,CLR,0.10,VWS V14.01,2013-05-28 20:06:00,
2013-05-28 15:08:00,80.2,68.3,29.76,South,184,6.0,12.0,67,0.00,,CLR,0.10,VWS V14.01,2013-05-28 20:08:00,
2013-05-28 15:09:00,80.2,67.8,29.76,SSW,197,6.0,12.0,66,0.00,,CLR,0.10,VWS V14.01,2013-05-28 20:09:00,
2013-05-28 15:10:00,80.4,68.0,29.76,SSW,213,5.0,12.0,66,0.00,,CLR,0.10,VWS V14.01,2013-05-28 20:10:00,
2013-05-28 15:11:00,80.6,68.2,29.76,West,266,0.0,12.0,66,0.00,,CLR,0.10,VWS V14.01,2013-05-28 20:11:00,
2013-05-28 15:13:00,80.6,68.2,29.76,SSW,198,0.0,12.0,66,0.00,,CLR,0.10,VWS V14.01,2013-05-28 20:13:00,
2013-05-28 15:15:00,80.6,68.2,29.76,SSW,200,0.0,12.0,66,0.00,,CLR,0.10,VWS V14.01,2013-05-28 20:15:00,
2013-05-28 15:16:00,80.6,68.2,29.76,East,84,4.0,12.0,66,0.00,,CLR,0.10,VWS V14.01,2013-05-28 20:16:00,
2013-05-28 15:19:00,80.4,68.4,29.76,SW,218,7.0,12.0,67,0.00,,CLR,0.10,VWS V14.01,2013-05-28 20:19:00,
2013-05-28 15:20:00,80.2,67.8,29.76,SSW,212,1.0,16.0,66,0.00,,CLR,0.10,VWS V14.01,2013-05-28 20:20:00,
2013-05-28 15:21:00,80.2,68.3,29.76,South,189,0.0,16.0,67,0.00,,CLR,0.10,VWS V14.01,2013-05-28 20:21:00,
2013-05-28 15:24:00,80.2,67.8,29.76,SSW,212,3.0,16.0,66,0.00,,CLR,0.10,VWS V14.01,2013-05-28 20:24:00,
2013-05-28 15:25:00,80.2,68.3,29.76,South,182,2.0,16.0,67,0.00,,CLR,0.10,VWS V14.01,2013-05-28 20:25:00,
2013-05-28 15:26:00,80.2,68.3,29.76,South,187,2.0,16.0,67,0.00,,CLR,0.10,VWS V14.01,2013-05-28 20:26:00,
2013-05-28 15:29:00,80.6,67.8,29.76,SW,218,0.0,18.0,65,0.00,,CLR,0.10,VWS V14.01,2013-05-28 20:29:00,
2013-05-28 15:30:00,80.8,68.4,29.76,South,183,0.0,18.0,66,0.00,,CLR,0.10,VWS V14.01,2013-05-28 20:30:00,
2013-05-28 15:31:00,80.8,68.4,29.76,SSE,167,7.0,7.0,66,0.00,,CLR,0.10,VWS V14.01,2013-05-28 20:31:00,
2013-05-28 15:35:00,81.0,68.1,29.76,SSW,205,16.0,16.0,65,0.00,,CLR,0.10,VWS V14.01,2013-05-28 20:35:00,
2013-05-28 15:36:00,81.0,67.7,29.76,SSW,213,10.0,26.0,64,0.00,,CLR,0.10,VWS V14.01,2013-05-28 20:36:00,
2013-05-28 15:40:00,81.3,68.0,29.76,SSW,202,7.0,26.0,64,0.00,,CLR,0.10,VWS V14.01,2013-05-28 20:40:00,
2013-05-28 15:41:00,81.3,68.0,29.76,SSW,202,0.0,26.0,64,0.00,,CLR,0.10,VWS V14.01,2013-05-28 20:41:00,
2013-05-28 15:45:00,81.3,68.4,29.74,South,173,9.0,26.0,65,0.00,,CLR,0.10,VWS V14.01,2013-05-28 20:45:00,
2013-05-28 15:46:00,81.3,68.0,29.74,South,188,0.0,26.0,64,0.00,,CLR,0.10,VWS V14.01,2013-05-28 20:46:00,
2013-05-28 15:47:00,81.3,68.4,29.74,South,185,0.0,26.0,65,0.00,,CLR,0.10,VWS V14.01,2013-05-28 20:47:00,
2013-05-28 15:50:00,81.3,68.4,29.74,South,184,1.0,26.0,65,0.00,,CLR,0.10,VWS V14.01,2013-05-28 20:50:00,
2013-05-28 15:51:00,81.3,68.4,29.74,SW,221,2.0,26.0,65,0.00,,CLR,0.10,VWS V14.01,2013-05-28 20:51:00,
2013-05-28 15:52:00,81.3,68.0,29.74,SSW,197,4.0,26.0,64,0.00,,CLR,0.10,VWS V14.01,2013-05-28 20:52:00,
2013-05-28 15:55:00,81.1,68.2,29.74,SSW,210,10.0,26.0,65,0.00,,CLR,0.10,VWS V14.01,2013-05-28 20:55:00,
2013-05-28 15:56:00,81.1,67.8,29.74,SE,145,4.0,26.0,64,0.00,,CLR,0.10,VWS V14.01,2013-05-28 20:56:00,
2013-05-28 15:57:00,81.1,67.8,29.74,South,189,3.0,26.0,64,0.00,,CLR,0.10,VWS V14.01,2013-05-28 20:57:00,
2013-05-28 16:00:00,81.3,68.0,29.76,SSW,208,1.0,26.0,64,0.00,,CLR,0.10,VWS V14.01,2013-05-28 21:00:00,
2013-05-28 16:01:00,81.5,68.6,29.76,South,184,4.0,5.0,65,0.00,,CLR,0.10,VWS V14.01,2013-05-28 21:01:00,
2013-05-28 16:02:00,81.5,68.2,29.76,SW,219,0.0,5.0,64,0.00,,CLR,0.10,VWS V14.01,2013-05-28 21:02:00,
2013-05-28 16:05:00,81.9,68.1,29.76,SSW,200,1.0,14.0,63,0.00,,CLR,0.10,VWS V14.01,2013-05-28 21:05:00,
2013-05-28 16:06:00,82.1,68.7,29.76,South,180,10.0,14.0,64,0.00,,CLR,0.10,VWS V14.01,2013-05-28 21:06:00,
2013-05-28 16:07:00,82.1,68.3,29.76,SSW,192,4.0,14.0,63,0.00,,CLR,0.10,VWS V14.01,2013-05-28 21:07:00,
2013-05-28 16:10:00,81.9,68.1,29.76,SE,142,13.0,14.0,63,0.00,,CLR,0.10,VWS V14.01,2013-05-28 21:10:00,
2013-05-28 16:11:00,81.9,68.1,29.76,SW,229,7.0,18.0,63,0.00,,CLR,0.10,VWS V14.01,2013-05-28 21:11:00,
2013-05-28 16:12:00,81.9,67.6,29.76,SSW,207,0.0,18.0,62,0.00,,CLR,0.10,VWS V14.01,2013-05-28 21:12:00,
2013-05-28 16:15:00,82.1,68.3,29.76,SSW,213,5.0,18.0,63,0.00,,CLR,0.10,VWS V14.01,2013-05-28 21:15:00,
2013-05-28 16:16:00,82.1,67.8,29.76,SSW,207,2.0,18.0,62,0.00,,CLR,0.10,VWS V14.01,2013-05-28 21:16:00,
2013-05-28 16:17:00,82.3,68.0,29.76,South,190,0.0,18.0,62,0.00,,CLR,0.10,VWS V14.01,2013-05-28 21:17:00,
2013-05-28 16:18:00,82.3,68.5,29.76,SSW,192,0.0,18.0,63,0.00,,CLR,0.10,VWS V14.01,2013-05-28 21:18:00,
2013-05-28 16:20:00,82.3,67.5,29.76,SSW,211,0.0,19.0,61,0.00,,CLR,0.10,VWS V14.01,2013-05-28 21:20:00,
2013-05-28 16:21:00,82.3,68.0,29.76,SSW,211,3.0,19.0,62,0.00,,CLR,0.10,VWS V14.01,2013-05-28 21:21:00,
2013-05-28 16:22:00,82.3,68.0,29.76,South,182,13.0,19.0,62,0.00,,CLR,0.10,VWS V14.01,2013-05-28 21:22:00,
2013-05-28 16:23:00,82.1,66.8,29.76,SW,221,10.0,19.0,60,0.00,,CLR,0.10,VWS V14.01,2013-05-28 21:23:00,
2013-05-28 16:26:00,82.1,67.8,29.76,South,175,0.0,19.0,62,0.00,,CLR,0.10,VWS V14.01,2013-05-28 21:26:00,
2013-05-28 16:27:00,82.1,67.3,29.76,SW,223,1.0,19.0,61,0.00,,CLR,0.10,VWS V14.01,2013-05-28 21:27:00,
2013-05-28 16:28:00,82.1,67.3,29.76,SSW,193,0.0,19.0,61,0.00,,CLR,0.10,VWS V14.01,2013-05-28 21:28:00,
2013-05-28 16:30:00,82.1,67.3,29.76,SSW,206,1.0,19.0,61,0.00,,,0.10,VWS V14.01,2013-05-28 21:30:00,
2013-05-28 16:31:00,82.1,67.3,29.76,South,181,1.0,3.0,61,0.00,,CLR,0.10,VWS V14.01,2013-05-28 21:31:00,
2013-05-28 16:32:00,81.9,67.6,29.76,SSW,202,2.0,7.0,62,0.00,,CLR,0.10,VWS V14.01,2013-05-28 21:32:00,
2013-05-28 16:33:00,81.9,67.6,29.76,South,174,3.0,7.0,62,0.00,,CLR,0.10,VWS V14.01,2013-05-28 21:33:00,
2013-05-28 16:36:00,81.9,66.2,29.76,SSW,206,3.0,21.0,59,0.00,,CLR,0.10,VWS V14.01,2013-05-28 21:36:00,
2013-05-28 16:37:00,81.9,66.7,29.76,SSW,202,5.0,21.0,60,0.00,,CLR,0.10,VWS V14.01,2013-05-28 21:37:00,
2013-05-28 16:38:00,81.9,66.7,29.76,SSW,201,7.0,21.0,60,0.00,,CLR,0.10,VWS V14.01,2013-05-28 21:38:00,
2013-05-28 16:41:00,81.7,66.5,29.76,SSW,196,14.0,21.0,60,0.00,,CLR,0.10,VWS V14.01,2013-05-28 21:41:00,
2013-05-28 16:42:00,81.7,66.5,29.76,SSW,203,3.0,21.0,60,0.00,,CLR,0.10,VWS V14.01,2013-05-28 21:42:00,
2013-05-28 16:43:00,81.7,66.5,29.76,SW,214,0.0,21.0,60,0.00,,CLR,0.10,VWS V14.01,2013-05-28 21:43:00,
2013-05-28 16:46:00,81.7,66.5,29.76,SSW,201,2.0,21.0,60,0.00,,CLR,0.10,VWS V14.01,2013-05-28 21:46:00,
2013-05-28 16:48:00,81.7,66.0,29.76,South,184,5.0,21.0,59,0.00,,CLR,0.10,VWS V14.01,2013-05-28 21:48:00,
2013-05-28 16:51:00,81.7,66.5,29.76,SW,219,4.0,21.0,60,0.00,,CLR,0.10,VWS V14.01,2013-05-28 21:51:00,
2013-05-28 16:53:00,81.7,66.5,29.76,South,182,0.0,21.0,60,0.00,,CLR,0.10,VWS V14.01,2013-05-28 21:53:00,
2013-05-28 16:56:00,81.9,67.1,29.76,SSW,198,10.0,21.0,61,0.00,,CLR,0.10,VWS V14.01,2013-05-28 21:56:00,
2013-05-28 16:58:00,81.9,67.1,29.76,SW,227,5.0,21.0,61,0.00,,CLR,0.10,VWS V14.01,2013-05-28 21:58:00,
2013-05-28 16:59:00,81.9,67.1,29.76,South,188,1.0,21.0,61,0.00,,CLR,0.10,VWS V14.01,2013-05-28 21:59:00,
2013-05-28 17:00:00,81.9,67.6,29.76,SW,217,4.0,21.0,62,0.00,,,0.10,VWS V14.01,2013-05-28 22:00:00,
2013-05-28 17:01:00,81.9,67.6,29.76,SSW,204,2.0,5.0,62,0.00,,CLR,0.10,VWS V14.01,2013-05-28 22:01:00,
2013-05-28 17:03:00,82.1,67.3,29.76,SSW,194,0.0,14.0,61,0.00,,CLR,0.10,VWS V14.01,2013-05-28 22:03:00,
2013-05-28 17:04:00,82.1,67.3,29.76,SSW,205,1.0,14.0,61,0.00,,CLR,0.10,VWS V14.01,2013-05-28 22:04:00,
2013-05-28 17:06:00,81.9,67.1,29.76,SSW,194,2.0,16.0,61,0.00,,CLR,0.10,VWS V14.01,2013-05-28 22:06:00,
2013-05-28 17:07:00,81.9,67.1,29.76,South,188,0.0,16.0,61,0.00,,CLR,0.10,VWS V14.01,2013-05-28 22:07:00,
2013-05-28 17:08:00,81.7,67.4,29.76,SSW,206,3.0,16.0,62,0.00,,CLR,0.10,VWS V14.01,2013-05-28 22:08:00,
2013-05-28 17:10:00,81.5,67.2,29.76,SSW,202,5.0,16.0,62,0.00,,CLR,0.10,VWS V14.01,2013-05-28 22:10:00,
2013-05-28 17:11:00,81.5,67.2,29.76,SSW,196,0.0,16.0,62,0.00,,CLR,0.10,VWS V14.01,2013-05-28 22:11:00,
2013-05-28 17:12:00,81.5,67.2,29.76,SSW,194,5.0,16.0,62,0.00,,CLR,0.10,VWS V14.01,2013-05-28 22:12:00,
2013-05-28 17:13:00,81.3,67.1,29.76,South,186,4.0,16.0,62,0.00,,CLR,0.10,VWS V14.01,2013-05-28 22:13:00,
2013-05-28 17:15:00,81.3,67.1,29.75,SSW,201,4.0,16.0,62,0.00,,CLR,0.10,VWS V14.01,2013-05-28 22:15:00,
2013-05-28 17:17:00,81.1,66.9,29.75,SE,136,0.0,16.0,62,0.00,,CLR,0.10,VWS V14.01,2013-05-28 22:17:00,
2013-05-28 17:18:00,81.0,66.8,29.75,South,178,1.0,16.0,62,0.00,,CLR,0.10,VWS V14.01,2013-05-28 22:18:00,
2013-05-28 17:19:00,81.0,66.8,29.75,South,182,0.0,16.0,62,0.00,,CLR,0.10,VWS V14.01,2013-05-28 22:19:00,
2013-05-28 17:20:00,81.0,66.8,29.75,SSE,167,3.0,16.0,62,0.00,,CLR,0.10,VWS V14.01,2013-05-28 22:20:00,
2013-05-28 17:22:00,81.0,67.2,29.75,SSW,211,2.0,16.0,63,0.00,,CLR,0.10,VWS V14.01,2013-05-28 22:22:00,
2013-05-28 17:24:00,80.8,67.0,29.75,South,190,6.0,16.0,63,0.00,,CLR,0.10,VWS V14.01,2013-05-28 22:24:00,
2013-05-28 17:25:00,80.8,66.6,29.75,SW,214,3.0,16.0,62,0.00,,CLR,0.10,VWS V14.01,2013-05-28 22:25:00,
2013-05-28 17:27:00,80.8,66.6,29.75,South,185,0.0,16.0,62,0.00,,CLR,0.10,VWS V14.01,2013-05-28 22:27:00,
2013-05-28 17:29:00,80.8,66.6,29.75,SSW,211,4.0,16.0,62,0.00,,CLR,0.10,VWS V14.01,2013-05-28 22:29:00,
2013-05-28 17:30:00,80.8,66.6,29.75,South,185,0.0,16.0,62,0.00,,,0.10,VWS V14.01,2013-05-28 22:30:00,
2013-05-28 17:31:00,80.8,66.6,29.75,South,185,0.0,0.0,62,0.00,,CLR,0.10,VWS V14.01,2013-05-28 22:31:00,
2013-05-28 17:32:00,80.8,66.6,29.75,SSW,201,0.0,3.0,62,0.00,,CLR,0.10,VWS V14.01,2013-05-28 22:32:00,
2013-05-28 17:33:00,80.8,66.6,29.75,SSW,199,0.0,3.0,62,0.00,,CLR,0.10,VWS V14.01,2013-05-28 22:33:00,
2013-05-28 17:34:00,80.6,66.4,29.75,South,190,0.0,3.0,62,0.00,,CLR,0.10,VWS V14.01,2013-05-28 22:34:00,
2013-05-28 17:36:00,80.6,66.4,29.75,South,186,0.0,6.0,62,0.00,,CLR,0.10,VWS V14.01,2013-05-28 22:36:00,
2013-05-28 17:37:00,80.6,66.4,29.75,South,182,2.0,12.0,62,0.00,,CLR,0.10,VWS V14.01,2013-05-28 22:37:00,
2013-05-28 17:38:00,80.6,66.4,29.75,SSW,207,3.0,12.0,62,0.00,,CLR,0.10,VWS V14.01,2013-05-28 22:38:00,
2013-05-28 17:39:00,80.6,66.4,29.75,South,185,6.0,12.0,62,0.00,,CLR,0.10,VWS V14.01,2013-05-28 22:39:00,
2013-05-28 17:41:00,80.6,66.8,29.75,SSW,198,3.0,12.0,63,0.00,,CLR,0.10,VWS V14.01,2013-05-28 22:41:00,
2013-05-28 17:43:00,80.4,66.2,29.75,South,184,0.0,12.0,62,0.00,,CLR,0.10,VWS V14.01,2013-05-28 22:43:00,
2013-05-28 17:44:00,80.4,66.7,29.75,South,191,0.0,12.0,63,0.00,,CLR,0.10,VWS V14.01,2013-05-28 22:44:00,
2013-05-28 17:45:00,80.4,66.7,29.76,SSW,194,0.0,12.0,63,0.00,,CLR,0.10,VWS V14.01,2013-05-28 22:45:00,
2013-05-28 17:46:00,80.4,66.7,29.76,SSE,165,0.0,12.0,63,0.00,,CLR,0.10,VWS V14.01,2013-05-28 22:46:00,
2013-05-28 17:48:00,80.4,66.7,29.76,SSW,201,1.0,12.0,63,0.00,,CLR,0.10,VWS V14.01,2013-05-28 22:48:00,
2013-05-28 17:49:00,80.4,66.7,29.76,SSW,202,0.0,12.0,63,0.00,,CLR,0.10,VWS V14.01,2013-05-28 22:49:00,
2013-05-28 17:50:00,80.4,66.7,29.76,South,187,0.0,12.0,63,0.00,,CLR,0.10,VWS V14.01,2013-05-28 22:50:00,
2013-05-28 17:52:00,80.4,66.7,29.76,South,183,2.0,12.0,63,0.00,,CLR,0.10,VWS V14.01,2013-05-28 22:52:00,
2013-05-28 17:53:00,80.4,66.7,29.76,South,182,0.0,12.0,63,0.00,,CLR,0.10,VWS V14.01,2013-05-28 22:53:00,
2013-05-28 17:54:00,80.4,67.1,29.76,South,182,0.0,12.0,64,0.00,,CLR,0.10,VWS V14.01,2013-05-28 22:54:00,
2013-05-28 17:55:00,80.4,67.1,29.76,South,185,0.0,12.0,64,0.00,,CLR,0.10,VWS V14.01,2013-05-28 22:55:00,
2013-05-28 17:57:00,80.2,66.9,29.76,South,186,0.0,12.0,64,0.00,,CLR,0.10,VWS V14.01,2013-05-28 22:57:00,
2013-05-28 17:58:00,80.2,66.9,29.76,SSW,196,0.0,12.0,64,0.00,,CLR,0.10,VWS V14.01,2013-05-28 22:58:00,
2013-05-28 18:00:00,80.2,66.9,29.77,SSW,196,0.0,12.0,64,0.00,,CLR,0.10,VWS V14.01,2013-05-28 23:00:00,
2013-05-28 18:02:00,80.2,66.9,29.77,South,190,0.0,0.0,64,0.00,,CLR,0.10,VWS V14.01,2013-05-28 23:02:00,
2013-05-28 18:03:00,80.2,67.4,29.77,South,185,0.0,5.0,65,0.00,,CLR,0.10,VWS V14.01,2013-05-28 23:03:00,
2013-05-28 18:04:00,80.2,67.4,29.77,South,180,0.0,5.0,65,0.00,,CLR,0.10,VWS V14.01,2013-05-28 23:04:00,
2013-05-28 18:05:00,80.2,66.9,29.77,South,178,0.0,5.0,64,0.00,,CLR,0.10,VWS V14.01,2013-05-28 23:05:00,
2013-05-28 18:07:00,80.2,66.9,29.77,SSW,192,0.0,5.0,64,0.00,,CLR,0.10,VWS V14.01,2013-05-28 23:07:00,
2013-05-28 18:09:00,80.2,66.9,29.77,SSW,202,0.0,5.0,64,0.00,,CLR,0.10,VWS V14.01,2013-05-28 23:09:00,
2013-05-28 18:10:00,80.2,66.9,29.77,SSW,200,2.0,5.0,64,0.00,,CLR,0.10,VWS V14.01,2013-05-28 23:10:00,
2013-05-28 18:12:00,80.2,66.9,29.77,SSW,192,0.0,5.0,64,0.00,,CLR,0.10,VWS V14.01,2013-05-28 23:12:00,
2013-05-28 18:14:00,80.2,66.9,29.77,SW,232,0.0,5.0,64,0.00,,CLR,0.10,VWS V14.01,2013-05-28 23:14:00,
2013-05-28 18:15:00,80.2,66.9,29.78,South,188,0.0,5.0,64,0.00,,CLR,0.10,VWS V14.01,2013-05-28 23:15:00,
2013-05-28 18:17:00,80.2,67.4,29.78,South,188,5.0,5.0,65,0.00,,CLR,0.10,VWS V14.01,2013-05-28 23:17:00,
2013-05-28 18:19:00,80.2,66.9,29.78,South,177,0.0,10.0,64,0.00,,CLR,0.10,VWS V14.01,2013-05-28 23:19:00,
2013-05-28 18:20:00,80.2,66.9,29.78,South,177,0.0,10.0,64,0.00,,CLR,0.10,VWS V14.01,2013-05-28 23:20:00,
2013-05-28 18:22:00,80.2,66.9,29.78,South,188,0.0,10.0,64,0.00,,CLR,0.10,VWS V14.01,2013-05-28 23:22:00,
2013-05-28 18:24:00,80.2,66.9,29.78,South,185,0.0,10.0,64,0.00,,CLR,0.10,VWS V14.01,2013-05-28 23:24:00,
2013-05-28 18:25:00,80.2,66.9,29.78,SSW,197,0.0,10.0,64,0.00,,CLR,0.10,VWS V14.01,2013-05-28 23:25:00,
2013-05-28 18:27:00,80.4,67.1,29.78,South,186,0.0,10.0,64,0.00,,CLR,0.10,VWS V14.01,2013-05-28 23:27:00,
2013-05-28 18:29:00,80.4,67.1,29.78,SW,236,0.0,10.0,64,0.00,,CLR,0.10,VWS V14.01,2013-05-28 23:29:00,
2013-05-28 18:30:00,80.4,67.1,29.79,SW,232,0.0,10.0,64,0.00,,CLR,0.10,VWS V14.01,2013-05-28 23:30:00,
2013-05-28 18:32:00,80.4,67.1,29.79,South,187,0.0,0.0,64,0.00,,CLR,0.10,VWS V14.01,2013-05-28 23:32:00,
2013-05-28 18:34:00,80.6,67.3,29.79,South,184,0.0,4.0,64,0.00,,CLR,0.10,VWS V14.01,2013-05-28 23:34:00,
2013-05-28 18:35:00,80.6,67.3,29.79,South,189,3.0,11.0,64,0.00,,CLR,0.10,VWS V14.01,2013-05-28 23:35:00,
2013-05-28 18:36:00,80.6,67.3,29.79,South,186,0.0,11.0,64,0.00,,CLR,0.10,VWS V14.01,2013-05-28 23:36:00,
2013-05-28 18:37:00,80.6,67.3,29.79,SSW,200,0.0,11.0,64,0.00,,CLR,0.10,VWS V14.01,2013-05-28 23:37:00,
2013-05-28 18:39:00,80.8,67.5,29.79,South,191,7.0,11.0,64,0.00,,CLR,0.10,VWS V14.01,2013-05-28 23:39:00,
2013-05-28 18:40:00,80.8,67.5,29.79,SSW,200,0.0,11.0,64,0.00,,CLR,0.10,VWS V14.01,2013-05-28 23:40:00,
2013-05-28 18:41:00,80.8,67.0,29.79,South,184,3.0,11.0,63,0.00,,CLR,0.10,VWS V14.01,2013-05-28 23:41:00,
2013-05-28 18:43:00,80.8,67.0,29.79,SSW,202,0.0,11.0,63,0.00,,CLR,0.10,VWS V14.01,2013-05-28 23:43:00,
2013-05-28 18:44:00,80.8,67.0,29.79,SSW,204,1.0,11.0,63,0.00,,CLR,0.10,VWS V14.01,2013-05-28 23:44:00,
2013-05-28 18:45:00,80.8,67.0,29.79,SSW,196,0.0,11.0,63,0.00,,CLR,0.10,VWS V14.01,2013-05-28 23:45:00,
2013-05-28 18:46:00,80.6,66.8,29.79,South,189,0.0,11.0,63,0.00,,CLR,0.10,VWS V14.01,2013-05-28 23:46:00,
2013-05-28 18:48:00,80.6,67.3,29.79,SW,225,3.0,11.0,64,0.00,,CLR,0.10,VWS V14.01,2013-05-28 23:48:00,
2013-05-28 18:49:00,80.6,66.4,29.79,South,190,0.0,11.0,62,0.00,,CLR,0.10,VWS V14.01,2013-05-28 23:49:00,
2013-05-28 18:51:00,80.6,66.8,29.79,SSW,197,0.0,11.0,63,0.00,,CLR,0.10,VWS V14.01,2013-05-28 23:51:00,
2013-05-28 18:52:00,80.4,66.7,29.79,South,186,2.0,11.0,63,0.00,,CLR,0.10,VWS V14.01,2013-05-28 23:52:00,
2013-05-28 18:53:00,80.4,66.2,29.79,SSE,167,0.0,11.0,62,0.00,,CLR,0.10,VWS V14.01,2013-05-28 23:53:00,
2013-05-28 18:55:00,80.4,67.1,29.79,SSE,167,0.0,11.0,64,0.00,,CLR,0.10,VWS V14.01,2013-05-28 23:55:00,
2013-05-28 18:56:00,80.2,66.5,29.79,South,180,0.0,11.0,63,0.00,,CLR,0.10,VWS V14.01,2013-05-28 23:56:00,
2013-05-28 18:57:00,80.2,66.5,29.79,South,186,3.0,11.0,63,0.00,,CLR,0.10,VWS V14.01,2013-05-28 23:57:00,
2013-05-28 18:58:00,80.2,66.0,29.79,SSW,198,0.0,11.0,62,0.00,,CLR,0.10,VWS V14.01,2013-05-28 23:58:00,
2013-05-28 19:00:00,80.0,65.8,29.78,South,184,0.0,11.0,62,0.00,,CLR,0.10,VWS V14.01,2013-05-29 00:00:00,
2013-05-28 19:01:00,80.0,65.8,29.78,South,188,0.0,11.0,62,0.00,,CLR,0.10,VWS V14.01,2013-05-29 00:01:00,
2013-05-28 19:02:00,80.0,65.8,29.78,South,182,2.0,5.0,62,0.00,,CLR,0.10,VWS V14.01,2013-05-29 00:02:00,
2013-05-28 19:03:00,80.0,66.3,29.78,SSW,194,0.0,5.0,63,0.00,,CLR,0.10,VWS V14.01,2013-05-29 00:03:00,
2013-05-28 19:05:00,79.8,65.6,29.78,SSW,192,0.0,5.0,62,0.00,,CLR,0.10,VWS V14.01,2013-05-29 00:05:00,
2013-05-28 19:06:00,79.8,66.1,29.78,South,190,4.0,5.0,63,0.00,,CLR,0.10,VWS V14.01,2013-05-29 00:06:00,
2013-05-28 19:07:00,79.7,66.0,29.78,South,189,4.0,5.0,63,0.00,,CLR,0.10,VWS V14.01,2013-05-29 00:07:00,
2013-05-28 19:09:00,79.7,66.0,29.78,SSW,206,0.0,6.0,63,0.00,,CLR,0.10,VWS V14.01,2013-05-29 00:09:00,
2013-05-28 19:10:00,79.7,66.0,29.78,South,189,0.0,6.0,63,0.00,,CLR,0.10,VWS V14.01,2013-05-29 00:10:00,
2013-05-28 19:11:00,79.5,65.8,29.78,SSW,207,4.0,7.0,63,0.00,,CLR,0.10,VWS V14.01,2013-05-29 00:11:00,
2013-05-28 19:12:00,79.5,65.3,29.78,SSW,205,0.0,7.0,62,0.00,,CLR,0.10,VWS V14.01,2013-05-29 00:12:00,
2013-05-28 19:14:00,79.5,65.8,29.78,SW,217,0.0,7.0,63,0.00,,CLR,0.10,VWS V14.01,2013-05-29 00:14:00,
2013-05-28 19:15:00,79.3,65.2,29.77,SSE,164,3.0,11.0,62,0.00,,CLR,0.10,VWS V14.01,2013-05-29 00:15:00,
2013-05-28 19:16:00,79.3,65.2,29.77,SSW,206,1.0,11.0,62,0.00,,CLR,0.10,VWS V14.01,2013-05-29 00:16:00,
2013-05-28 19:17:00,79.3,65.2,29.77,SSW,196,0.0,11.0,62,0.00,,CLR,0.10,VWS V14.01,2013-05-29 00:17:00,
2013-05-28 19:19:00,79.3,65.6,29.77,SSW,206,1.0,11.0,63,0.00,,CLR,0.10,VWS V14.01,2013-05-29 00:19:00,
2013-05-28 19:20:00,79.3,65.2,29.77,SW,217,3.0,11.0,62,0.00,,CLR,0.10,VWS V14.01,2013-05-29 00:20:00,
2013-05-28 19:21:00,79.3,65.2,29.77,SW,220,0.0,11.0,62,0.00,,CLR,0.10,VWS V14.01,2013-05-29 00:21:00,
2013-05-28 19:22:00,79.3,65.2,29.77,SW,217,4.0,11.0,62,0.00,,CLR,0.10,VWS V14.01,2013-05-29 00:22:00,
2013-05-28 19:23:00,79.3,65.2,29.77,SSW,207,8.0,11.0,62,0.00,,CLR,0.10,VWS V14.01,2013-05-29 00:23:00,
2013-05-28 19:24:00,79.3,65.2,29.77,South,190,0.0,11.0,62,0.00,,CLR,0.10,VWS V14.01,2013-05-29 00:24:00,
2013-05-28 19:25:00,79.3,65.2,29.77,SW,236,1.0,11.0,62,0.00,,CLR,0.10,VWS V14.01,2013-05-29 00:25:00,
2013-05-28 19:26:00,79.3,65.2,29.77,SSW,213,2.0,11.0,62,0.00,,CLR,0.10,VWS V14.01,2013-05-29 00:26:00,
2013-05-28 19:28:00,79.1,65.0,29.77,SSW,194,6.0,11.0,62,0.00,,CLR,0.10,VWS V14.01,2013-05-29 00:28:00,
2013-05-28 19:29:00,79.1,65.0,29.77,SSW,196,0.0,11.0,62,0.00,,CLR,0.10,VWS V14.01,2013-05-29 00:29:00,
2013-05-28 19:30:00,79.1,65.0,29.76,SW,215,2.0,11.0,62,0.00,,CLR,0.10,VWS V14.01,2013-05-29 00:30:00,
2013-05-28 19:31:00,78.9,64.8,29.76,South,184,2.0,6.0,62,0.00,,CLR,0.10,VWS V14.01,2013-05-29 00:31:00,
2013-05-28 19:33:00,78.9,64.8,29.76,South,189,0.0,6.0,62,0.00,,CLR,0.10,VWS V14.01,2013-05-29 00:33:00,
2013-05-28 19:35:00,78.9,64.8,29.76,SSW,208,0.0,6.0,62,0.00,,CLR,0.10,VWS V14.01,2013-05-29 00:35:00,
2013-05-28 19:37:00,78.7,64.1,29.76,SSW,199,2.0,11.0,61,0.00,,CLR,0.10,VWS V14.01,2013-05-29 00:37:00,
2013-05-28 19:38:00,78.7,64.1,29.76,South,179,4.0,11.0,61,0.00,,CLR,0.10,VWS V14.01,2013-05-29 00:38:00,
2013-05-28 19:40:00,78.7,63.7,29.76,SSW,196,7.0,12.0,60,0.00,,CLR,0.10,VWS V14.01,2013-05-29 00:40:00,
2013-05-28 19:42:00,78.9,63.4,29.76,SSW,211,3.0,12.0,59,0.00,,CLR,0.10,VWS V14.01,2013-05-29 00:42:00,
2013-05-28 19:43:00,78.9,63.4,29.76,SSW,206,9.0,12.0,59,0.00,,CLR,0.10,VWS V14.01,2013-05-29 00:43:00,
2013-05-28 19:45:00,78.9,63.4,29.76,South,175,2.0,12.0,59,0.00,,CLR,0.10,VWS V14.01,2013-05-29 00:45:00,
2013-05-28 19:46:00,78.9,63.4,29.76,SSW,209,4.0,12.0,59,0.00,,CLR,0.10,VWS V14.01,2013-05-29 00:46:00,
2013-05-28 19:47:00,78.9,63.4,29.76,SSW,207,0.0,12.0,59,0.00,,CLR,0.10,VWS V14.01,2013-05-29 00:47:00,
2013-05-28 19:48:00,78.7,63.2,29.76,South,176,6.0,12.0,59,0.00,,CLR,0.10,VWS V14.01,2013-05-29 00:48:00,
2013-05-28 19:50:00,78.7,63.2,29.76,SSW,203,6.0,12.0,59,0.00,,CLR,0.10,VWS V14.01,2013-05-29 00:50:00,
2013-05-28 19:51:00,78.7,63.2,29.76,South,191,5.0,12.0,59,0.00,,CLR,0.10,VWS V14.01,2013-05-29 00:51:00,
2013-05-28 19:52:00,78.5,63.0,29.76,WSW,240,5.0,12.0,59,0.00,,CLR,0.10,VWS V14.01,2013-05-29 00:52:00,
2013-05-28 19:53:00,78.5,63.0,29.76,SSW,205,6.0,12.0,59,0.00,,CLR,0.10,VWS V14.01,2013-05-29 00:53:00,
2013-05-28 19:55:00,78.5,63.0,29.76,SSW,192,3.0,12.0,59,0.00,,CLR,0.10,VWS V14.01,2013-05-29 00:55:00,
2013-05-28 19:56:00,78.5,63.0,29.76,SSW,199,1.0,12.0,59,0.00,,CLR,0.10,VWS V14.01,2013-05-29 00:56:00,
2013-05-28 19:57:00,78.4,62.9,29.76,South,186,2.0,12.0,59,0.00,,CLR,0.10,VWS V14.01,2013-05-29 00:57:00,
2013-05-28 19:58:00,78.4,62.9,29.76,SSW,196,0.0,12.0,59,0.00,,CLR,0.10,VWS V14.01,2013-05-29 00:58:00,
2013-05-28 19:59:00,78.4,62.9,29.76,SSW,196,0.0,12.0,59,0.00,,CLR,0.10,VWS V14.01,2013-05-29 00:59:00,
2013-05-28 20:00:00,78.2,62.7,29.76,South,190,1.0,12.0,59,0.00,,CLR,0.10,VWS V14.01,2013-05-29 01:00:00,
2013-05-28 20:01:00,78.2,62.7,29.76,SSW,198,0.0,1.0,59,0.00,,CLR,0.10,VWS V14.01,2013-05-29 01:01:00,
2013-05-28 20:02:00,78.2,62.2,29.76,South,188,0.0,2.0,58,0.00,,CLR,0.10,VWS V14.01,2013-05-29 01:02:00,
2013-05-28 20:03:00,78.2,63.2,29.76,South,177,4.0,6.0,60,0.00,,CLR,0.10,VWS V14.01,2013-05-29 01:03:00,
2013-05-28 20:04:00,78.2,63.2,29.76,SW,218,4.0,6.0,60,0.00,,CLR,0.10,VWS V14.01,2013-05-29 01:04:00,
2013-05-28 20:05:00,78.2,62.7,29.76,SSW,205,2.0,9.0,59,0.00,,CLR,0.10,VWS V14.01,2013-05-29 01:05:00,
2013-05-28 20:06:00,78.0,63.0,29.76,South,181,1.0,9.0,60,0.00,,CLR,0.10,VWS V14.01,2013-05-29 01:06:00,
2013-05-28 20:07:00,78.0,63.0,29.76,SSW,194,5.0,9.0,60,0.00,,CLR,0.10,VWS V14.01,2013-05-29 01:07:00,
2013-05-28 20:08:00,78.0,63.0,29.76,SSW,194,0.0,9.0,60,0.00,,CLR,0.10,VWS V14.01,2013-05-29 01:08:00,
2013-05-28 20:09:00,78.0,63.0,29.76,SSW,202,3.0,9.0,60,0.00,,CLR,0.10,VWS V14.01,2013-05-29 01:09:00,
2013-05-28 20:10:00,78.0,63.0,29.76,SSW,196,0.0,10.0,60,0.00,,CLR,0.10,VWS V14.01,2013-05-29 01:10:00,
2013-05-28 20:11:00,78.0,63.0,29.76,SSW,196,0.0,10.0,60,0.00,,CLR,0.10,VWS V14.01,2013-05-29 01:11:00,
2013-05-28 20:13:00,77.8,62.8,29.76,SSW,194,3.0,10.0,60,0.00,,CLR,0.10,VWS V14.01,2013-05-29 01:13:00,
2013-05-28 20:14:00,77.8,62.8,29.76,SSW,194,0.0,10.0,60,0.00,,CLR,0.10,VWS V14.01,2013-05-29 01:14:00,
2013-05-28 20:15:00,77.6,63.1,29.77,SSW,200,0.0,10.0,61,0.00,,CLR,0.10,VWS V14.01,2013-05-29 01:15:00,
2013-05-28 20:16:00,77.6,63.1,29.77,South,187,0.0,10.0,61,0.00,,CLR,0.10,VWS V14.01,2013-05-29 01:16:00,
2013-05-28 20:18:00,77.6,63.1,29.77,South,188,0.0,10.0,61,0.00,,CLR,0.10,VWS V14.01,2013-05-29 01:18:00,
2013-05-28 20:19:00,77.5,63.5,29.77,SSW,192,4.0,10.0,62,0.00,,CLR,0.10,VWS V14.01,2013-05-29 01:19:00,
2013-05-28 20:21:00,77.5,63.0,29.77,SSW,200,5.0,10.0,61,0.00,,CLR,0.10,VWS V14.01,2013-05-29 01:21:00,
2013-05-28 20:23:00,77.3,63.3,29.77,South,186,4.0,10.0,62,0.00,,CLR,0.10,VWS V14.01,2013-05-29 01:23:00,
2013-05-28 20:24:00,77.3,63.3,29.77,South,174,0.0,10.0,62,0.00,,CLR,0.10,VWS V14.01,2013-05-29 01:24:00,
2013-05-28 20:26:00,77.3,63.3,29.77,SSW,200,0.0,10.0,62,0.00,,CLR,0.10,VWS V14.01,2013-05-29 01:26:00,
2013-05-28 20:28:00,77.1,63.1,29.77,South,190,0.0,10.0,62,0.00,,CLR,0.10,VWS V14.01,2013-05-29 01:28:00,
2013-05-28 20:29:00,77.1,63.1,29.77,SSW,195,0.0,10.0,62,0.00,,CLR,0.10,VWS V14.01,2013-05-29 01:29:00,
2013-05-28 20:30:00,76.9,62.9,29.76,South,177,0.0,10.0,62,0.00,,,0.10,VWS V14.01,2013-05-29 01:30:00,
2013-05-28 20:31:00,76.9,62.9,29.76,South,177,0.0,0.0,62,0.00,,CLR,0.10,VWS V14.01,2013-05-29 01:31:00,
2013-05-28 20:32:00,76.9,62.9,29.76,South,191,3.0,9.0,62,0.00,,CLR,0.10,VWS V14.01,2013-05-29 01:32:00,
2013-05-28 20:33:00,76.9,62.9,29.76,South,184,0.0,9.0,62,0.00,,CLR,0.10,VWS V14.01,2013-05-29 01:33:00,
2013-05-28 20:34:00,76.9,62.9,29.76,South,188,0.0,9.0,62,0.00,,CLR,0.10,VWS V14.01,2013-05-29 01:34:00,
2013-05-28 20:36:00,76.7,63.2,29.76,South,188,0.0,9.0,63,0.00,,CLR,0.10,VWS V14.01,2013-05-29 01:36:00,
2013-05-28 20:37:00,76.7,63.2,29.76,South,184,2.0,9.0,63,0.00,,CLR,0.10,VWS V14.01,2013-05-29 01:37:00,
2013-05-28 20:38:00,76.6,63.1,29.76,SE,146,10.0,10.0,63,0.00,,CLR,0.10,VWS V14.01,2013-05-29 01:38:00,
2013-05-28 20:39:00,76.6,63.1,29.76,SSW,194,0.0,10.0,63,0.00,,CLR,0.10,VWS V14.01,2013-05-29 01:39:00,
2013-05-28 20:41:00,76.6,63.1,29.76,South,188,0.0,10.0,63,0.00,,CLR,0.10,VWS V14.01,2013-05-29 01:41:00,
2013-05-28 20:42:00,76.6,63.1,29.76,South,189,0.0,10.0,63,0.00,,CLR,0.10,VWS V14.01,2013-05-29 01:42:00,
2013-05-28 20:43:00,76.6,63.1,29.76,South,184,0.0,10.0,63,0.00,,CLR,0.10,VWS V14.01,2013-05-29 01:43:00,
2013-05-28 20:44:00,76.4,63.3,29.76,South,182,0.0,10.0,64,0.00,,CLR,0.10,VWS V14.01,2013-05-29 01:44:00,
2013-05-28 20:45:00,76.4,63.3,29.75,South,182,0.0,10.0,64,0.00,,CLR,0.10,VWS V14.01,2013-05-29 01:45:00,
2013-05-28 20:46:00,76.4,63.3,29.75,SSW,196,0.0,10.0,64,0.00,,CLR,0.10,VWS V14.01,2013-05-29 01:46:00,
2013-05-28 20:47:00,76.4,63.3,29.75,South,191,0.0,10.0,64,0.00,,CLR,0.10,VWS V14.01,2013-05-29 01:47:00,
2013-05-28 20:48:00,76.2,63.1,29.75,South,191,0.0,10.0,64,0.00,,CLR,0.10,VWS V14.01,2013-05-29 01:48:00,
2013-05-28 20:49:00,76.2,63.1,29.75,South,190,0.0,10.0,64,0.00,,CLR,0.10,VWS V14.01,2013-05-29 01:49:00,
2013-05-28 20:50:00,76.2,63.1,29.75,South,190,0.0,10.0,64,0.00,,CLR,0.10,VWS V14.01,2013-05-29 01:50:00,
2013-05-28 20:51:00,76.2,63.1,29.75,South,188,3.0,10.0,64,0.00,,CLR,0.10,VWS V14.01,2013-05-29 01:51:00,
2013-05-28 20:52:00,76.2,63.1,29.75,South,188,0.0,10.0,64,0.00,,CLR,0.10,VWS V14.01,2013-05-29 01:52:00,
2013-05-28 20:53:00,76.2,63.1,29.75,SSW,195,0.0,10.0,64,0.00,,CLR,0.10,VWS V14.01,2013-05-29 01:53:00,
2013-05-28 20:55:00,76.2,63.1,29.75,SSW,195,0.0,10.0,64,0.00,,CLR,0.10,VWS V14.01,2013-05-29 01:55:00,
2013-05-28 20:56:00,76.2,63.1,29.75,SSW,195,0.0,10.0,64,0.00,,CLR,0.10,VWS V14.01,2013-05-29 01:56:00,
2013-05-28 20:58:00,76.0,63.4,29.75,SSW,195,0.0,10.0,65,0.00,,CLR,0.10,VWS V14.01,2013-05-29 01:58:00,
2013-05-28 21:00:00,75.9,63.3,29.76,SSW,194,0.0,10.0,65,0.00,,CLR,0.10,VWS V14.01,2013-05-29 02:00:00,
2013-05-28 21:02:00,75.9,63.3,29.76,South,187,0.0,0.0,65,0.00,,CLR,0.10,VWS V14.01,2013-05-29 02:02:00,
2013-05-28 21:03:00,75.9,63.3,29.76,South,186,0.0,0.0,65,0.00,,CLR,0.10,VWS V14.01,2013-05-29 02:03:00,
2013-05-28 21:05:00,75.7,63.1,29.76,South,184,0.0,2.0,65,0.00,,CLR,0.10,VWS V14.01,2013-05-29 02:05:00,
2013-05-28 21:06:00,75.7,63.1,29.76,South,182,0.0,2.0,65,0.00,,CLR,0.10,VWS V14.01,2013-05-29 02:06:00,
2013-05-28 21:07:00,75.7,63.1,29.76,South,184,0.0,2.0,65,0.00,,CLR,0.10,VWS V14.01,2013-05-29 02:07:00,
2013-05-28 21:08:00,75.7,63.1,29.76,SSW,201,2.0,3.0,65,0.00,,CLR,0.10,VWS V14.01,2013-05-29 02:08:00,
2013-05-28 21:10:00,75.7,63.1,29.76,SSW,194,0.0,3.0,65,0.00,,CLR,0.10,VWS V14.01,2013-05-29 02:10:00,
2013-05-28 21:11:00,75.5,63.4,29.76,South,189,4.0,4.0,66,0.00,,CLR,0.10,VWS V14.01,2013-05-29 02:11:00,
2013-05-28 21:12:00,75.5,63.4,29.76,South,190,0.0,4.0,66,0.00,,CLR,0.10,VWS V14.01,2013-05-29 02:12:00,
2013-05-28 21:13:00,75.5,63.4,29.76,SW,221,3.0,5.0,66,0.00,,CLR,0.10,VWS V14.01,2013-05-29 02:13:00,
2013-05-28 21:14:00,75.5,63.4,29.76,South,182,0.0,5.0,66,0.00,,CLR,0.10,VWS V14.01,2013-05-29 02:14:00,
2013-05-28 21:15:00,75.5,63.4,29.76,South,182,0.0,5.0,66,0.00,,CLR,0.10,VWS V14.01,2013-05-29 02:15:00,
2013-05-28 21:16:00,75.5,63.4,29.76,SSE,160,0.0,5.0,66,0.00,,CLR,0.10,VWS V14.01,2013-05-29 02:16:00,
2013-05-28 21:17:00,75.3,63.2,29.76,South,182,0.0,5.0,66,0.00,,CLR,0.10,VWS V14.01,2013-05-29 02:17:00,
2013-05-28 21:18:00,75.3,63.2,29.76,South,182,0.0,5.0,66,0.00,,CLR,0.10,VWS V14.01,2013-05-29 02:18:00,
2013-05-28 21:19:00,75.3,63.6,29.76,SSW,192,0.0,5.0,67,0.00,,CLR,0.10,VWS V14.01,2013-05-29 02:19:00,
2013-05-28 21:20:00,75.3,63.6,29.76,SSW,192,0.0,5.0,67,0.00,,CLR,0.10,VWS V14.01,2013-05-29 02:20:00,
2013-05-28 21:21:00,75.3,63.6,29.76,South,188,2.0,5.0,67,0.00,,CLR,0.10,VWS V14.01,2013-05-29 02:21:00,
2013-05-28 21:22:00,75.3,63.6,29.76,South,188,0.0,5.0,67,0.00,,CLR,0.10,VWS V14.01,2013-05-29 02:22:00,
2013-05-28 21:23:00,75.3,63.6,29.76,SSW,194,0.0,5.0,67,0.00,,CLR,0.10,VWS V14.01,2013-05-29 02:23:00,
2013-05-28 21:24:00,75.2,63.5,29.76,South,185,4.0,5.0,67,0.00,,CLR,0.10,VWS V14.01,2013-05-29 02:24:00,
2013-05-28 21:25:00,75.2,63.5,29.76,South,184,0.0,5.0,67,0.00,,CLR,0.10,VWS V14.01,2013-05-29 02:25:00,
2013-05-28 21:26:00,75.2,63.5,29.76,South,186,0.0,5.0,67,0.00,,CLR,0.10,VWS V14.01,2013-05-29 02:26:00,
2013-05-28 21:27:00,75.2,63.5,29.76,South,180,3.0,5.0,67,0.00,,CLR,0.10,VWS V14.01,2013-05-29 02:27:00,
2013-05-28 21:28:00,75.2,63.5,29.76,South,175,0.0,5.0,67,0.00,,CLR,0.10,VWS V14.01,2013-05-29 02:28:00,
2013-05-28 21:29:00,75.2,63.5,29.76,South,175,0.0,5.0,67,0.00,,CLR,0.10,VWS V14.01,2013-05-29 02:29:00,
2013-05-28 21:30:00,75.2,63.9,29.78,South,175,0.0,5.0,68,0.00,,CLR,0.10,VWS V14.01,2013-05-29 02:30:00,
2013-05-28 21:31:00,75.2,63.9,29.78,South,190,0.0,6.0,68,0.00,,CLR,0.10,VWS V14.01,2013-05-29 02:31:00,
2013-05-28 21:32:00,75.2,63.9,29.78,South,177,0.0,6.0,68,0.00,,CLR,0.10,VWS V14.01,2013-05-29 02:32:00,
2013-05-28 21:33:00,75.0,63.7,29.78,South,187,0.0,6.0,68,0.00,,CLR,0.10,VWS V14.01,2013-05-29 02:33:00,
2013-05-28 21:34:00,75.0,63.7,29.78,South,185,0.0,6.0,68,0.00,,CLR,0.10,VWS V14.01,2013-05-29 02:34:00,
2013-05-28 21:35:00,75.0,63.7,29.78,SSW,209,5.0,7.0,68,0.00,,CLR,0.10,VWS V14.01,2013-05-29 02:35:00,
2013-05-28 21:37:00,75.0,63.7,29.78,South,186,0.0,7.0,68,0.00,,CLR,0.10,VWS V14.01,2013-05-29 02:37:00,
2013-05-28 21:38:00,75.0,63.7,29.78,South,178,0.0,7.0,68,0.00,,CLR,0.10,VWS V14.01,2013-05-29 02:38:00,
2013-05-28 21:39:00,75.0,63.7,29.78,SSW,196,5.0,7.0,68,0.00,,CLR,0.10,VWS V14.01,2013-05-29 02:39:00,
2013-05-28 21:40:00,75.0,63.7,29.78,South,183,4.0,7.0,68,0.00,,CLR,0.10,VWS V14.01,2013-05-29 02:40:00,
2013-05-28 21:42:00,75.0,63.7,29.78,SSW,199,3.0,8.0,68,0.00,,CLR,0.10,VWS V14.01,2013-05-29 02:42:00,
2013-05-28 21:44:00,75.0,63.7,29.78,South,191,3.0,8.0,68,0.00,,CLR,0.10,VWS V14.01,2013-05-29 02:44:00,
2013-05-28 21:45:00,75.0,63.7,29.78,SSW,197,0.0,8.0,68,0.00,,CLR,0.10,VWS V14.01,2013-05-29 02:45:00,
2013-05-28 21:47:00,74.8,64.0,29.78,SSW,194,1.0,8.0,69,0.00,,CLR,0.10,VWS V14.01,2013-05-29 02:47:00,
2013-05-28 21:49:00,74.8,64.0,29.78,South,169,0.0,8.0,69,0.00,,CLR,0.10,VWS V14.01,2013-05-29 02:49:00,
2013-05-28 21:50:00,74.8,64.0,29.78,South,189,3.0,9.0,69,0.00,,CLR,0.10,VWS V14.01,2013-05-29 02:50:00,
2013-05-28 21:51:00,74.8,64.0,29.78,SSW,198,5.0,9.0,69,0.00,,CLR,0.10,VWS V14.01,2013-05-29 02:51:00,
2013-05-28 21:52:00,75.0,63.7,29.78,SSW,198,0.0,9.0,68,0.00,,CLR,0.10,VWS V14.01,2013-05-29 02:52:00,
2013-05-28 21:54:00,75.0,63.7,29.78,South,189,0.0,9.0,68,0.00,,CLR,0.10,VWS V14.01,2013-05-29 02:54:00,
2013-05-28 21:55:00,75.0,63.7,29.78,South,191,0.0,9.0,68,0.00,,CLR,0.10,VWS V14.01,2013-05-29 02:55:00,
2013-05-28 21:56:00,75.0,63.7,29.78,South,190,4.0,9.0,68,0.00,,CLR,0.10,VWS V14.01,2013-05-29 02:56:00,
2013-05-28 21:57:00,75.0,63.7,29.78,SSW,199,0.0,9.0,68,0.00,,CLR,0.10,VWS V14.01,2013-05-29 02:57:00,
2013-05-28 21:59:00,75.0,63.7,29.78,SSW,193,0.0,9.0,68,0.00,,CLR,0.10,VWS V14.01,2013-05-29 02:59:00,
2013-05-28 22:00:00,75.0,63.7,29.78,South,190,0.0,10.0,68,0.00,,CLR,0.10,VWS V14.01,2013-05-29 03:00:00,
2013-05-28 22:01:00,75.0,63.7,29.78,South,185,0.0,1.0,68,0.00,,CLR,0.10,VWS V14.01,2013-05-29 03:01:00,
2013-05-28 22:03:00,75.0,64.2,29.78,South,181,0.0,5.0,69,0.00,,CLR,0.10,VWS V14.01,2013-05-29 03:03:00,
2013-05-28 22:04:00,74.8,64.0,29.78,SSW,205,4.0,7.0,69,0.00,,CLR,0.10,VWS V14.01,2013-05-29 03:04:00,
2013-05-28 22:05:00,74.8,64.0,29.78,SSW,205,0.0,7.0,69,0.00,,CLR,0.10,VWS V14.01,2013-05-29 03:05:00,
2013-05-28 22:06:00,74.8,64.0,29.78,SSW,195,1.0,7.0,69,0.00,,CLR,0.10,VWS V14.01,2013-05-29 03:06:00,
2013-05-28 22:08:00,74.8,64.0,29.78,South,190,2.0,7.0,69,0.00,,CLR,0.10,VWS V14.01,2013-05-29 03:08:00,
2013-05-28 22:10:00,74.8,64.0,29.78,SSW,205,0.0,7.0,69,0.00,,CLR,0.10,VWS V14.01,2013-05-29 03:10:00,
2013-05-28 22:11:00,74.8,64.0,29.78,South,188,0.0,7.0,69,0.00,,CLR,0.10,VWS V14.01,2013-05-29 03:11:00,
2013-05-28 22:12:00,74.8,64.0,29.78,South,188,0.0,7.0,69,0.00,,CLR,0.10,VWS V14.01,2013-05-29 03:12:00,
2013-05-28 22:13:00,74.8,64.0,29.78,South,190,0.0,7.0,69,0.00,,CLR,0.10,VWS V14.01,2013-05-29 03:13:00,
2013-05-28 22:15:00,74.8,64.0,29.78,SSW,194,3.0,7.0,69,0.00,,CLR,0.10,VWS V14.01,2013-05-29 03:15:00,
2013-05-28 22:16:00,74.8,64.0,29.78,SSE,159,0.0,7.0,69,0.00,,CLR,0.10,VWS V14.01,2013-05-29 03:16:00,
2013-05-28 22:17:00,74.6,63.8,29.78,SSE,162,0.0,7.0,69,0.00,,CLR,0.10,VWS V14.01,2013-05-29 03:17:00,
2013-05-28 22:18:00,74.6,63.8,29.78,South,184,3.0,7.0,69,0.00,,CLR,0.10,VWS V14.01,2013-05-29 03:18:00,
2013-05-28 22:20:00,74.6,63.8,29.78,South,173,0.0,10.0,69,0.00,,CLR,0.10,VWS V14.01,2013-05-29 03:20:00,
2013-05-28 22:21:00,74.6,63.8,29.78,South,181,3.0,10.0,69,0.00,,CLR,0.10,VWS V14.01,2013-05-29 03:21:00,
2013-05-28 22:22:00,74.6,63.8,29.78,South,190,0.0,10.0,69,0.00,,CLR,0.10,VWS V14.01,2013-05-29 03:22:00,
2013-05-28 22:23:00,74.6,63.8,29.78,South,190,0.0,10.0,69,0.00,,CLR,0.10,VWS V14.01,2013-05-29 03:23:00,
2013-05-28 22:25:00,74.6,63.8,29.78,SW,219,5.0,10.0,69,0.00,,CLR,0.10,VWS V14.01,2013-05-29 03:25:00,
2013-05-28 22:26:00,74.6,63.8,29.78,SSW,198,0.0,10.0,69,0.00,,CLR,0.10,VWS V14.01,2013-05-29 03:26:00,
2013-05-28 22:27:00,74.6,63.8,29.78,South,178,0.0,10.0,69,0.00,,CLR,0.10,VWS V14.01,2013-05-29 03:27:00,
2013-05-28 22:28:00,74.6,63.8,29.78,South,190,0.0,10.0,69,0.00,,CLR,0.10,VWS V14.01,2013-05-29 03:28:00,
2013-05-28 22:29:00,74.6,63.8,29.78,SSW,192,0.0,10.0,69,0.00,,CLR,0.10,VWS V14.01,2013-05-29 03:29:00,
2013-05-28 22:30:00,74.5,63.7,29.79,SSW,197,0.0,10.0,69,0.00,,,0.10,VWS V14.01,2013-05-29 03:30:00,
2013-05-28 22:31:00,74.5,63.7,29.79,SSW,197,0.0,0.0,69,0.00,,CLR,0.10,VWS V14.01,2013-05-29 03:31:00,
2013-05-28 22:32:00,74.5,63.7,29.79,SSW,197,0.0,0.0,69,0.00,,CLR,0.10,VWS V14.01,2013-05-29 03:32:00,
2013-05-28 22:33:00,74.5,63.7,29.79,SSE,151,0.0,4.0,69,0.00,,CLR,0.10,VWS V14.01,2013-05-29 03:33:00,
2013-05-28 22:34:00,74.5,63.7,29.79,SSE,162,0.0,4.0,69,0.00,,CLR,0.10,VWS V14.01,2013-05-29 03:34:00,
2013-05-28 22:35:00,74.5,63.7,29.79,South,171,0.0,4.0,69,0.00,,CLR,0.10,VWS V14.01,2013-05-29 03:35:00,
2013-05-28 22:37:00,74.5,63.7,29.79,South,173,0.0,4.0,69,0.00,,CLR,0.10,VWS V14.01,2013-05-29 03:37:00,
2013-05-28 22:38:00,74.5,63.7,29.79,SSE,162,0.0,4.0,69,0.00,,CLR,0.10,VWS V14.01,2013-05-29 03:38:00,
2013-05-28 22:39:00,74.5,63.7,29.79,SSW,196,2.0,4.0,69,0.00,,CLR,0.10,VWS V14.01,2013-05-29 03:39:00,
2013-05-28 22:41:00,74.5,63.7,29.79,South,175,0.0,6.0,69,0.00,,CLR,0.10,VWS V14.01,2013-05-29 03:41:00,
2013-05-28 22:42:00,74.6,63.8,29.79,South,184,2.0,9.0,69,0.00,,CLR,0.10,VWS V14.01,2013-05-29 03:42:00,
2013-05-28 22:43:00,74.6,63.8,29.79,South,186,9.0,11.0,69,0.00,,CLR,0.10,VWS V14.01,2013-05-29 03:43:00,
2013-05-28 22:44:00,74.6,63.8,29.79,South,189,2.0,11.0,69,0.00,,CLR,0.10,VWS V14.01,2013-05-29 03:44:00,
2013-05-28 22:46:00,74.6,63.8,29.80,South,181,0.0,11.0,69,0.00,,CLR,0.10,VWS V14.01,2013-05-29 03:46:00,
2013-05-28 22:48:00,74.6,63.8,29.80,South,172,0.0,11.0,69,0.00,,CLR,0.10,VWS V14.01,2013-05-29 03:48:00,
2013-05-28 22:49:00,74.6,63.8,29.80,South,173,0.0,11.0,69,0.00,,CLR,0.10,VWS V14.01,2013-05-29 03:49:00,
2013-05-28 22:52:00,74.6,63.3,29.80,SSW,206,0.0,11.0,68,0.00,,CLR,0.10,VWS V14.01,2013-05-29 03:52:00,
2013-05-28 22:53:00,74.6,63.3,29.80,SSW,206,0.0,11.0,68,0.00,,CLR,0.10,VWS V14.01,2013-05-29 03:53:00,
2013-05-28 22:54:00,74.6,63.3,29.80,SSW,206,0.0,11.0,68,0.00,,CLR,0.10,VWS V14.01,2013-05-29 03:54:00,
2013-05-28 22:57:00,74.6,63.3,29.80,South,169,9.0,11.0,68,0.00,,CLR,0.10,VWS V14.01,2013-05-29 03:57:00,
2013-05-28 22:58:00,74.8,63.5,29.80,SSW,196,1.0,11.0,68,0.00,,CLR,0.10,VWS V14.01,2013-05-29 03:58:00,
2013-05-28 22:59:00,74.8,63.5,29.80,SSW,192,0.0,11.0,68,0.00,,CLR,0.10,VWS V14.01,2013-05-29 03:59:00,
2013-05-28 23:00:00,74.8,63.5,29.81,SSW,192,0.0,11.0,68,0.00,,,0.10,VWS V14.01,2013-05-29 04:00:00,
2013-05-28 23:01:00,74.8,63.5,29.81,SSW,192,0.0,0.0,68,0.00,,CLR,0.10,VWS V14.01,2013-05-29 04:01:00,
2013-05-28 23:06:00,74.6,63.3,29.81,SSE,167,0.0,3.0,68,0.00,,CLR,0.10,VWS V14.01,2013-05-29 04:06:00,
2013-05-28 23:11:00,74.5,63.3,29.81,South,169,0.0,3.0,68,0.00,,CLR,0.10,VWS V14.01,2013-05-29 04:11:00,
2013-05-28 23:16:00,74.5,63.3,29.83,South,169,0.0,3.0,68,0.00,,CLR,0.10,VWS V14.01,2013-05-29 04:16:00,
2013-05-28 23:21:00,74.3,63.5,29.83,South,169,0.0,3.0,69,0.00,,CLR,0.10,VWS V14.01,2013-05-29 04:21:00,
2013-05-28 23:22:00,74.3,63.5,29.83,South,169,0.0,3.0,69,0.00,,CLR,0.10,VWS V14.01,2013-05-29 04:22:00,
2013-05-28 23:26:00,74.1,63.3,29.83,South,169,0.0,3.0,69,0.00,,CLR,0.10,VWS V14.01,2013-05-29 04:26:00,
2013-05-28 23:27:00,74.1,63.3,29.83,South,169,0.0,3.0,69,0.00,,CLR,0.10,VWS V14.01,2013-05-29 04:27:00,
2013-05-28 23:30:00,73.9,63.1,29.84,South,169,0.0,3.0,69,0.00,,,0.10,VWS V14.01,2013-05-29 04:30:00,
2013-05-28 23:31:00,73.9,63.1,29.84,South,169,0.0,0.0,69,0.00,,CLR,0.10,VWS V14.01,2013-05-29 04:31:00,
2013-05-28 23:32:00,73.9,63.1,29.84,South,169,0.0,0.0,69,0.00,,CLR,0.10,VWS V14.01,2013-05-29 04:32:00,
2013-05-28 23:36:00,73.8,63.4,29.84,South,169,0.0,0.0,70,0.00,,CLR,0.10,VWS V14.01,2013-05-29 04:36:00,
2013-05-28 23:37:00,73.8,63.4,29.84,South,169,0.0,0.0,70,0.00,,CLR,0.10,VWS V14.01,2013-05-29 04:37:00,
2013-05-28 23:41:00,73.6,63.2,29.84,South,169,0.0,0.0,70,0.00,,CLR,0.10,VWS V14.01,2013-05-29 04:41:00,
2013-05-28 23:42:00,73.6,63.2,29.84,South,169,0.0,0.0,70,0.00,,CLR,0.10,VWS V14.01,2013-05-29 04:42:00,
2013-05-28 23:46:00,73.4,63.0,29.85,South,169,0.0,0.0,70,0.00,,CLR,0.10,VWS V14.01,2013-05-29 04:46:00,
2013-05-28 23:47:00,73.4,63.0,29.85,South,169,0.0,0.0,70,0.00,,CLR,0.10,VWS V14.01,2013-05-29 04:47:00,
2013-05-28 23:51:00,73.2,63.2,29.85,South,169,0.0,0.0,71,0.00,,CLR,0.10,VWS V14.01,2013-05-29 04:51:00,
2013-05-28 23:52:00,73.2,63.2,29.85,South,169,0.0,0.0,71,0.00,,CLR,0.10,VWS V14.01,2013-05-29 04:52:00,
2013-05-28 23:53:00,73.1,63.2,29.85,South,169,0.0,0.0,71,0.00,,CLR,0.10,VWS V14.01,2013-05-29 04:53:00,
2013-05-28 23:56:00,72.9,63.3,29.85,South,169,0.0,0.0,72,0.00,,CLR,0.10,VWS V14.01,2013-05-29 04:56:00,
2013-05-28 23:57:00,72.9,63.3,29.85,South,169,0.0,0.0,72,0.00,,CLR,0.10,VWS V14.01,2013-05-29 04:57:00,
2013-05-28 23:58:00,72.9,63.3,29.85,South,169,0.0,0.0,72,0.00,,CLR,0.10,VWS V14.01,2013-05-29 04:58:00,